<?xml version="1.0" encoding="UTF-8" standalone="no" ?>
<gpx xmlns="http://www.topografix.com/GPX/1/1" xmlns:xsi="http://www.w3.org/2001/XMLSchema-instance" xsi:schemaLocation="http://www.topografix.com/GPX/1/1 http://www.topografix.com/GPX/1/1/gpx.xsd" version="1.1" creator="VisuGPX - https://www.visugpx.com">
  <metadata>
    <name>Bédoin Cyclisme</name>
  </metadata>
  <trk>
    <name><![CDATA[Bédoin Cyclisme_1]]></name>
    <trkseg>
      <trkpt lat="44.1515" lon="5.31862">
        <ele>1365.6</ele>
        <time>2021-09-12T07:43:59Z</time>
      </trkpt>
      <trkpt lat="44.15099" lon="5.31825">
        <ele>1364.8</ele>
        <time>2021-09-12T07:44:16Z</time>
      </trkpt>
      <trkpt lat="44.15074" lon="5.31809">
        <ele>1364.8</ele>
        <time>2021-09-12T07:44:25Z</time>
      </trkpt>
      <trkpt lat="44.1502" lon="5.31791">
        <ele>1364.8</ele>
        <time>2021-09-12T07:44:41Z</time>
      </trkpt>
      <trkpt lat="44.1501" lon="5.31787">
        <ele>1364.6</ele>
        <time>2021-09-12T07:44:44Z</time>
      </trkpt>
      <trkpt lat="44.14995" lon="5.31782">
        <ele>1364.4</ele>
        <time>2021-09-12T07:44:48Z</time>
      </trkpt>
      <trkpt lat="44.14942" lon="5.31766">
        <ele>1363.6</ele>
        <time>2021-09-12T07:45:02Z</time>
      </trkpt>
      <trkpt lat="44.14938" lon="5.31766">
        <ele>1363.6</ele>
        <time>2021-09-12T07:45:03Z</time>
      </trkpt>
      <trkpt lat="44.1491" lon="5.31798">
        <ele>1363.6</ele>
        <time>2021-09-12T07:45:13Z</time>
      </trkpt>
      <trkpt lat="44.14897" lon="5.3187">
        <ele>1362.8</ele>
        <time>2021-09-12T07:45:27Z</time>
      </trkpt>
      <trkpt lat="44.14895" lon="5.31887">
        <ele>1362.6</ele>
        <time>2021-09-12T07:45:30Z</time>
      </trkpt>
      <trkpt lat="44.14892" lon="5.31966">
        <ele>1362.2</ele>
        <time>2021-09-12T07:45:45Z</time>
      </trkpt>
      <trkpt lat="44.14893" lon="5.32">
        <ele>1361.6</ele>
        <time>2021-09-12T07:45:51Z</time>
      </trkpt>
      <trkpt lat="44.14884" lon="5.32077">
        <ele>1361.2</ele>
        <time>2021-09-12T07:46:05Z</time>
      </trkpt>
      <trkpt lat="44.1486" lon="5.32147">
        <ele>1360.6</ele>
        <time>2021-09-12T07:46:20Z</time>
      </trkpt>
      <trkpt lat="44.14858" lon="5.3215">
        <ele>1360.6</ele>
        <time>2021-09-12T07:46:21Z</time>
      </trkpt>
      <trkpt lat="44.14832" lon="5.32222">
        <ele>1359.8</ele>
        <time>2021-09-12T07:46:39Z</time>
      </trkpt>
      <trkpt lat="44.14831" lon="5.32227">
        <ele>1359.6</ele>
        <time>2021-09-12T07:46:40Z</time>
      </trkpt>
      <trkpt lat="44.1483" lon="5.32234">
        <ele>1359.4</ele>
        <time>2021-09-12T07:46:41Z</time>
      </trkpt>
      <trkpt lat="44.1483" lon="5.3224">
        <ele>1359.2</ele>
        <time>2021-09-12T07:46:42Z</time>
      </trkpt>
      <trkpt lat="44.1484" lon="5.32294">
        <ele>1359</ele>
        <time>2021-09-12T07:46:50Z</time>
      </trkpt>
      <trkpt lat="44.14845" lon="5.32305">
        <ele>1359.2</ele>
        <time>2021-09-12T07:46:52Z</time>
      </trkpt>
      <trkpt lat="44.1488" lon="5.32349">
        <ele>1358.6</ele>
        <time>2021-09-12T07:47:02Z</time>
      </trkpt>
      <trkpt lat="44.14888" lon="5.32354">
        <ele>1358.4</ele>
        <time>2021-09-12T07:47:04Z</time>
      </trkpt>
      <trkpt lat="44.14936" lon="5.32384">
        <ele>1357.6</ele>
        <time>2021-09-12T07:47:15Z</time>
      </trkpt>
      <trkpt lat="44.14946" lon="5.32395">
        <ele>1357.2</ele>
        <time>2021-09-12T07:47:18Z</time>
      </trkpt>
      <trkpt lat="44.14993" lon="5.32436">
        <ele>1356.8</ele>
        <time>2021-09-12T07:47:32Z</time>
      </trkpt>
      <trkpt lat="44.15041" lon="5.32479">
        <ele>1356.4</ele>
        <time>2021-09-12T07:47:46Z</time>
      </trkpt>
      <trkpt lat="44.15085" lon="5.32528">
        <ele>1356.4</ele>
        <time>2021-09-12T07:48:00Z</time>
      </trkpt>
      <trkpt lat="44.151" lon="5.32547">
        <ele>1356.2</ele>
        <time>2021-09-12T07:48:05Z</time>
      </trkpt>
      <trkpt lat="44.15125" lon="5.32585">
        <ele>1355.6</ele>
        <time>2021-09-12T07:48:14Z</time>
      </trkpt>
      <trkpt lat="44.15145" lon="5.3262">
        <ele>1355</ele>
        <time>2021-09-12T07:48:22Z</time>
      </trkpt>
      <trkpt lat="44.15166" lon="5.32648">
        <ele>1354.2</ele>
        <time>2021-09-12T07:48:29Z</time>
      </trkpt>
      <trkpt lat="44.15175" lon="5.32659">
        <ele>1354</ele>
        <time>2021-09-12T07:48:32Z</time>
      </trkpt>
      <trkpt lat="44.15224" lon="5.32693">
        <ele>1353.4</ele>
        <time>2021-09-12T07:48:45Z</time>
      </trkpt>
      <trkpt lat="44.15232" lon="5.32699">
        <ele>1353</ele>
        <time>2021-09-12T07:48:47Z</time>
      </trkpt>
      <trkpt lat="44.15236" lon="5.32702">
        <ele>1352.8</ele>
        <time>2021-09-12T07:48:48Z</time>
      </trkpt>
      <trkpt lat="44.15286" lon="5.32732">
        <ele>1352.4</ele>
        <time>2021-09-12T07:49:02Z</time>
      </trkpt>
      <trkpt lat="44.15319" lon="5.32752">
        <ele>1352</ele>
        <time>2021-09-12T07:49:11Z</time>
      </trkpt>
      <trkpt lat="44.15324" lon="5.32761">
        <ele>1351.8</ele>
        <time>2021-09-12T07:49:13Z</time>
      </trkpt>
      <trkpt lat="44.15324" lon="5.32768">
        <ele>1351.8</ele>
        <time>2021-09-12T07:49:14Z</time>
      </trkpt>
      <trkpt lat="44.15323" lon="5.32775">
        <ele>1351.6</ele>
        <time>2021-09-12T07:49:15Z</time>
      </trkpt>
      <trkpt lat="44.15315" lon="5.32785">
        <ele>1351.6</ele>
        <time>2021-09-12T07:49:17Z</time>
      </trkpt>
      <trkpt lat="44.15306" lon="5.32787">
        <ele>1351.6</ele>
        <time>2021-09-12T07:49:19Z</time>
      </trkpt>
      <trkpt lat="44.15265" lon="5.32792">
        <ele>1351.6</ele>
        <time>2021-09-12T07:49:29Z</time>
      </trkpt>
      <trkpt lat="44.15208" lon="5.32795">
        <ele>1351.2</ele>
        <time>2021-09-12T07:49:44Z</time>
      </trkpt>
      <trkpt lat="44.1517" lon="5.32793">
        <ele>1350.8</ele>
        <time>2021-09-12T07:49:54Z</time>
      </trkpt>
      <trkpt lat="44.15113" lon="5.32777">
        <ele>1350</ele>
        <time>2021-09-12T07:50:07Z</time>
      </trkpt>
      <trkpt lat="44.15068" lon="5.32758">
        <ele>1349.6</ele>
        <time>2021-09-12T07:50:18Z</time>
      </trkpt>
      <trkpt lat="44.15012" lon="5.32734">
        <ele>1348.6</ele>
        <time>2021-09-12T07:50:31Z</time>
      </trkpt>
      <trkpt lat="44.15003" lon="5.3273">
        <ele>1348.6</ele>
        <time>2021-09-12T07:50:33Z</time>
      </trkpt>
      <trkpt lat="44.1495" lon="5.327">
        <ele>1348.6</ele>
        <time>2021-09-12T07:50:46Z</time>
      </trkpt>
      <trkpt lat="44.14897" lon="5.32676">
        <ele>1347.8</ele>
        <time>2021-09-12T07:50:59Z</time>
      </trkpt>
      <trkpt lat="44.14888" lon="5.32678">
        <ele>1347.8</ele>
        <time>2021-09-12T07:51:01Z</time>
      </trkpt>
      <trkpt lat="44.1488" lon="5.32684">
        <ele>1347.6</ele>
        <time>2021-09-12T07:51:03Z</time>
      </trkpt>
      <trkpt lat="44.14874" lon="5.32692">
        <ele>1347.6</ele>
        <time>2021-09-12T07:51:05Z</time>
      </trkpt>
      <trkpt lat="44.1487" lon="5.32703">
        <ele>1347.6</ele>
        <time>2021-09-12T07:51:07Z</time>
      </trkpt>
      <trkpt lat="44.14869" lon="5.32715">
        <ele>1347.6</ele>
        <time>2021-09-12T07:51:09Z</time>
      </trkpt>
      <trkpt lat="44.14868" lon="5.32726">
        <ele>1347.4</ele>
        <time>2021-09-12T07:51:11Z</time>
      </trkpt>
      <trkpt lat="44.1487" lon="5.32738">
        <ele>1347.4</ele>
        <time>2021-09-12T07:51:13Z</time>
      </trkpt>
      <trkpt lat="44.14894" lon="5.32808">
        <ele>1347.2</ele>
        <time>2021-09-12T07:51:28Z</time>
      </trkpt>
      <trkpt lat="44.14895" lon="5.32885">
        <ele>1346.8</ele>
        <time>2021-09-12T07:51:42Z</time>
      </trkpt>
      <trkpt lat="44.14895" lon="5.32892">
        <ele>1346.8</ele>
        <time>2021-09-12T07:51:43Z</time>
      </trkpt>
      <trkpt lat="44.14888" lon="5.32949">
        <ele>1346.6</ele>
        <time>2021-09-12T07:51:53Z</time>
      </trkpt>
      <trkpt lat="44.14889" lon="5.33025">
        <ele>1345.8</ele>
        <time>2021-09-12T07:52:06Z</time>
      </trkpt>
      <trkpt lat="44.14893" lon="5.33042">
        <ele>1345.4</ele>
        <time>2021-09-12T07:52:09Z</time>
      </trkpt>
      <trkpt lat="44.14913" lon="5.33117">
        <ele>1345</ele>
        <time>2021-09-12T07:52:22Z</time>
      </trkpt>
      <trkpt lat="44.14932" lon="5.33177">
        <ele>1344.8</ele>
        <time>2021-09-12T07:52:33Z</time>
      </trkpt>
      <trkpt lat="44.14937" lon="5.33194">
        <ele>1344.6</ele>
        <time>2021-09-12T07:52:36Z</time>
      </trkpt>
      <trkpt lat="44.14941" lon="5.3321">
        <ele>1344.4</ele>
        <time>2021-09-12T07:52:39Z</time>
      </trkpt>
      <trkpt lat="44.14958" lon="5.33253">
        <ele>1345.4</ele>
        <time>2021-09-12T07:52:50Z</time>
      </trkpt>
      <trkpt lat="44.1497" lon="5.33262">
        <ele>1346.6</ele>
        <time>2021-09-12T07:52:55Z</time>
      </trkpt>
      <trkpt lat="44.14977" lon="5.33265">
        <ele>1348</ele>
        <time>2021-09-12T07:52:58Z</time>
      </trkpt>
      <trkpt lat="44.14985" lon="5.3327">
        <ele>1349.2</ele>
        <time>2021-09-12T07:53:02Z</time>
      </trkpt>
      <trkpt lat="44.14993" lon="5.33279">
        <ele>1350.4</ele>
        <time>2021-09-12T07:53:07Z</time>
      </trkpt>
      <trkpt lat="44.15001" lon="5.33289">
        <ele>1351.4</ele>
        <time>2021-09-12T07:53:12Z</time>
      </trkpt>
      <trkpt lat="44.15007" lon="5.333">
        <ele>1352.6</ele>
        <time>2021-09-12T07:53:16Z</time>
      </trkpt>
      <trkpt lat="44.14983" lon="5.3332">
        <ele>1353.6</ele>
        <time>2021-09-12T07:53:30Z</time>
      </trkpt>
      <trkpt lat="44.14958" lon="5.33338">
        <ele>1354.6</ele>
        <time>2021-09-12T07:53:43Z</time>
      </trkpt>
      <trkpt lat="44.15003" lon="5.33376">
        <ele>1355.6</ele>
        <time>2021-09-12T07:54:07Z</time>
      </trkpt>
      <trkpt lat="44.15006" lon="5.33377">
        <ele>1355.6</ele>
        <time>2021-09-12T07:54:09Z</time>
      </trkpt>
      <trkpt lat="44.15018" lon="5.33384">
        <ele>1356</ele>
        <time>2021-09-12T07:54:15Z</time>
      </trkpt>
      <trkpt lat="44.15048" lon="5.33406">
        <ele>1356.8</ele>
        <time>2021-09-12T07:54:27Z</time>
      </trkpt>
      <trkpt lat="44.15071" lon="5.33424">
        <ele>1357.8</ele>
        <time>2021-09-12T07:54:36Z</time>
      </trkpt>
      <trkpt lat="44.15089" lon="5.33438">
        <ele>1358.8</ele>
        <time>2021-09-12T07:54:44Z</time>
      </trkpt>
      <trkpt lat="44.15102" lon="5.3345">
        <ele>1360</ele>
        <time>2021-09-12T07:54:51Z</time>
      </trkpt>
      <trkpt lat="44.15109" lon="5.33469">
        <ele>1361</ele>
        <time>2021-09-12T07:54:58Z</time>
      </trkpt>
      <trkpt lat="44.15101" lon="5.33485">
        <ele>1362.4</ele>
        <time>2021-09-12T07:55:04Z</time>
      </trkpt>
      <trkpt lat="44.15071" lon="5.3349">
        <ele>1363.4</ele>
        <time>2021-09-12T07:55:17Z</time>
      </trkpt>
      <trkpt lat="44.15046" lon="5.33491">
        <ele>1364.4</ele>
        <time>2021-09-12T07:55:28Z</time>
      </trkpt>
      <trkpt lat="44.15027" lon="5.33493">
        <ele>1365.4</ele>
        <time>2021-09-12T07:55:37Z</time>
      </trkpt>
      <trkpt lat="44.15008" lon="5.33498">
        <ele>1366.6</ele>
        <time>2021-09-12T07:55:46Z</time>
      </trkpt>
      <trkpt lat="44.1499" lon="5.33504">
        <ele>1367.6</ele>
        <time>2021-09-12T07:55:54Z</time>
      </trkpt>
      <trkpt lat="44.14964" lon="5.33511">
        <ele>1368.8</ele>
        <time>2021-09-12T07:56:05Z</time>
      </trkpt>
      <trkpt lat="44.14947" lon="5.33518">
        <ele>1369.8</ele>
        <time>2021-09-12T07:56:13Z</time>
      </trkpt>
      <trkpt lat="44.14929" lon="5.33524">
        <ele>1370.8</ele>
        <time>2021-09-12T07:56:21Z</time>
      </trkpt>
      <trkpt lat="44.14914" lon="5.33532">
        <ele>1372</ele>
        <time>2021-09-12T07:56:28Z</time>
      </trkpt>
      <trkpt lat="44.149" lon="5.33542">
        <ele>1373</ele>
        <time>2021-09-12T07:56:35Z</time>
      </trkpt>
      <trkpt lat="44.14884" lon="5.33565">
        <ele>1374</ele>
        <time>2021-09-12T07:56:45Z</time>
      </trkpt>
      <trkpt lat="44.14874" lon="5.33595">
        <ele>1375.2</ele>
        <time>2021-09-12T07:56:56Z</time>
      </trkpt>
      <trkpt lat="44.14872" lon="5.33613">
        <ele>1376.2</ele>
        <time>2021-09-12T07:57:03Z</time>
      </trkpt>
      <trkpt lat="44.14874" lon="5.33636">
        <ele>1377.4</ele>
        <time>2021-09-12T07:57:12Z</time>
      </trkpt>
      <trkpt lat="44.14884" lon="5.33655">
        <ele>1378.4</ele>
        <time>2021-09-12T07:57:20Z</time>
      </trkpt>
      <trkpt lat="44.14891" lon="5.33667">
        <ele>1379.4</ele>
        <time>2021-09-12T07:57:25Z</time>
      </trkpt>
      <trkpt lat="44.14902" lon="5.3368">
        <ele>1380.6</ele>
        <time>2021-09-12T07:57:32Z</time>
      </trkpt>
      <trkpt lat="44.1491" lon="5.33688">
        <ele>1381.8</ele>
        <time>2021-09-12T07:57:37Z</time>
      </trkpt>
      <trkpt lat="44.14918" lon="5.33693">
        <ele>1383</ele>
        <time>2021-09-12T07:57:43Z</time>
      </trkpt>
      <trkpt lat="44.14925" lon="5.33696">
        <ele>1384.2</ele>
        <time>2021-09-12T07:57:48Z</time>
      </trkpt>
      <trkpt lat="44.14932" lon="5.33699">
        <ele>1385.4</ele>
        <time>2021-09-12T07:57:53Z</time>
      </trkpt>
      <trkpt lat="44.14937" lon="5.337">
        <ele>1386.6</ele>
        <time>2021-09-12T07:57:57Z</time>
      </trkpt>
      <trkpt lat="44.14945" lon="5.33698">
        <ele>1387.8</ele>
        <time>2021-09-12T07:58:04Z</time>
      </trkpt>
      <trkpt lat="44.1495" lon="5.33697">
        <ele>1388.8</ele>
        <time>2021-09-12T07:58:09Z</time>
      </trkpt>
      <trkpt lat="44.14956" lon="5.33694">
        <ele>1389.8</ele>
        <time>2021-09-12T07:58:14Z</time>
      </trkpt>
      <trkpt lat="44.14964" lon="5.33693">
        <ele>1390.8</ele>
        <time>2021-09-12T07:58:20Z</time>
      </trkpt>
      <trkpt lat="44.14966" lon="5.33693">
        <ele>1391.2</ele>
        <time>2021-09-12T07:58:22Z</time>
      </trkpt>
      <trkpt lat="44.14969" lon="5.33695">
        <ele>1391.6</ele>
        <time>2021-09-12T07:58:24Z</time>
      </trkpt>
      <trkpt lat="44.14971" lon="5.33695">
        <ele>1391.8</ele>
        <time>2021-09-12T07:58:26Z</time>
      </trkpt>
      <trkpt lat="44.14972" lon="5.33696">
        <ele>1392</ele>
        <time>2021-09-12T07:58:27Z</time>
      </trkpt>
      <trkpt lat="44.14978" lon="5.33702">
        <ele>1392.6</ele>
        <time>2021-09-12T07:58:35Z</time>
      </trkpt>
      <trkpt lat="44.14979" lon="5.337">
        <ele>1392.8</ele>
        <time>2021-09-12T07:58:40Z</time>
      </trkpt>
      <trkpt lat="44.14972" lon="5.33698">
        <ele>1391.8</ele>
        <time>2021-09-12T07:59:23Z</time>
      </trkpt>
      <trkpt lat="44.14972" lon="5.33695">
        <ele>1392</ele>
        <time>2021-09-12T08:00:00Z</time>
      </trkpt>
      <trkpt lat="44.14972" lon="5.33698">
        <ele>1391.6</ele>
        <time>2021-09-12T08:00:45Z</time>
      </trkpt>
      <trkpt lat="44.14971" lon="5.33703">
        <ele>1390.8</ele>
        <time>2021-09-12T08:00:47Z</time>
      </trkpt>
      <trkpt lat="44.14971" lon="5.33707">
        <ele>1390.4</ele>
        <time>2021-09-12T08:00:48Z</time>
      </trkpt>
      <trkpt lat="44.1497" lon="5.33723">
        <ele>1389.8</ele>
        <time>2021-09-12T08:00:51Z</time>
      </trkpt>
      <trkpt lat="44.14968" lon="5.33753">
        <ele>1389</ele>
        <time>2021-09-12T08:00:56Z</time>
      </trkpt>
      <trkpt lat="44.14969" lon="5.33765">
        <ele>1388.6</ele>
        <time>2021-09-12T08:00:58Z</time>
      </trkpt>
      <trkpt lat="44.1497" lon="5.33771">
        <ele>1388</ele>
        <time>2021-09-12T08:00:59Z</time>
      </trkpt>
      <trkpt lat="44.1497" lon="5.33777">
        <ele>1387.2</ele>
        <time>2021-09-12T08:01:00Z</time>
      </trkpt>
      <trkpt lat="44.14971" lon="5.3379">
        <ele>1386</ele>
        <time>2021-09-12T08:01:02Z</time>
      </trkpt>
      <trkpt lat="44.14973" lon="5.33812">
        <ele>1384.8</ele>
        <time>2021-09-12T08:01:05Z</time>
      </trkpt>
      <trkpt lat="44.14975" lon="5.33828">
        <ele>1383.6</ele>
        <time>2021-09-12T08:01:07Z</time>
      </trkpt>
      <trkpt lat="44.14987" lon="5.33867">
        <ele>1384.8</ele>
        <time>2021-09-12T08:01:17Z</time>
      </trkpt>
      <trkpt lat="44.14993" lon="5.33892">
        <ele>1385.8</ele>
        <time>2021-09-12T08:01:23Z</time>
      </trkpt>
      <trkpt lat="44.15004" lon="5.33919">
        <ele>1386.8</ele>
        <time>2021-09-12T08:01:31Z</time>
      </trkpt>
      <trkpt lat="44.15015" lon="5.33949">
        <ele>1388</ele>
        <time>2021-09-12T08:01:41Z</time>
      </trkpt>
      <trkpt lat="44.15018" lon="5.33953">
        <ele>1388</ele>
        <time>2021-09-12T08:01:43Z</time>
      </trkpt>
      <trkpt lat="44.15023" lon="5.33961">
        <ele>1388.6</ele>
        <time>2021-09-12T08:01:47Z</time>
      </trkpt>
      <trkpt lat="44.15064" lon="5.34018">
        <ele>1388.8</ele>
        <time>2021-09-12T08:02:09Z</time>
      </trkpt>
      <trkpt lat="44.15068" lon="5.34022">
        <ele>1389</ele>
        <time>2021-09-12T08:02:11Z</time>
      </trkpt>
      <trkpt lat="44.15074" lon="5.34027">
        <ele>1390</ele>
        <time>2021-09-12T08:02:15Z</time>
      </trkpt>
      <trkpt lat="44.15085" lon="5.34031">
        <ele>1391.2</ele>
        <time>2021-09-12T08:02:23Z</time>
      </trkpt>
      <trkpt lat="44.15092" lon="5.34028">
        <ele>1392.6</ele>
        <time>2021-09-12T08:02:28Z</time>
      </trkpt>
      <trkpt lat="44.151" lon="5.34024">
        <ele>1394</ele>
        <time>2021-09-12T08:02:34Z</time>
      </trkpt>
      <trkpt lat="44.15109" lon="5.34024">
        <ele>1395</ele>
        <time>2021-09-12T08:02:39Z</time>
      </trkpt>
      <trkpt lat="44.15118" lon="5.34027">
        <ele>1396</ele>
        <time>2021-09-12T08:02:44Z</time>
      </trkpt>
      <trkpt lat="44.1513" lon="5.34028">
        <ele>1397</ele>
        <time>2021-09-12T08:02:52Z</time>
      </trkpt>
      <trkpt lat="44.15133" lon="5.34031">
        <ele>1398.4</ele>
        <time>2021-09-12T08:02:57Z</time>
      </trkpt>
      <trkpt lat="44.15132" lon="5.34034">
        <ele>1398.6</ele>
        <time>2021-09-12T08:03:58Z</time>
      </trkpt>
      <trkpt lat="44.15125" lon="5.34035">
        <ele>1398</ele>
        <time>2021-09-12T08:04:02Z</time>
      </trkpt>
      <trkpt lat="44.1512" lon="5.34034">
        <ele>1397.2</ele>
        <time>2021-09-12T08:04:04Z</time>
      </trkpt>
      <trkpt lat="44.15106" lon="5.34035">
        <ele>1395.8</ele>
        <time>2021-09-12T08:04:08Z</time>
      </trkpt>
      <trkpt lat="44.151" lon="5.34035">
        <ele>1394.6</ele>
        <time>2021-09-12T08:04:10Z</time>
      </trkpt>
      <trkpt lat="44.15089" lon="5.34036">
        <ele>1393.6</ele>
        <time>2021-09-12T08:04:14Z</time>
      </trkpt>
      <trkpt lat="44.15086" lon="5.34035">
        <ele>1393</ele>
        <time>2021-09-12T08:04:16Z</time>
      </trkpt>
      <trkpt lat="44.15083" lon="5.34033">
        <ele>1392.6</ele>
        <time>2021-09-12T08:04:18Z</time>
      </trkpt>
      <trkpt lat="44.15078" lon="5.34032">
        <ele>1391.6</ele>
        <time>2021-09-12T08:04:31Z</time>
      </trkpt>
      <trkpt lat="44.15078" lon="5.34037">
        <ele>1391.4</ele>
        <time>2021-09-12T08:06:42Z</time>
      </trkpt>
      <trkpt lat="44.1508" lon="5.34038">
        <ele>1390.8</ele>
        <time>2021-09-12T08:06:44Z</time>
      </trkpt>
      <trkpt lat="44.15091" lon="5.34035">
        <ele>1392.4</ele>
        <time>2021-09-12T08:07:14Z</time>
      </trkpt>
      <trkpt lat="44.15093" lon="5.34034">
        <ele>1392.6</ele>
        <time>2021-09-12T08:07:16Z</time>
      </trkpt>
      <trkpt lat="44.15101" lon="5.34031">
        <ele>1393.6</ele>
        <time>2021-09-12T08:07:21Z</time>
      </trkpt>
      <trkpt lat="44.15111" lon="5.34029">
        <ele>1394.6</ele>
        <time>2021-09-12T08:07:27Z</time>
      </trkpt>
      <trkpt lat="44.15123" lon="5.34028">
        <ele>1395.6</ele>
        <time>2021-09-12T08:07:34Z</time>
      </trkpt>
      <trkpt lat="44.15125" lon="5.34028">
        <ele>1395.8</ele>
        <time>2021-09-12T08:07:35Z</time>
      </trkpt>
      <trkpt lat="44.15135" lon="5.34029">
        <ele>1398.6</ele>
        <time>2021-09-12T08:07:41Z</time>
      </trkpt>
      <trkpt lat="44.15136" lon="5.34029">
        <ele>1397.6</ele>
        <time>2021-09-12T08:07:42Z</time>
      </trkpt>
      <trkpt lat="44.15139" lon="5.34029">
        <ele>1398.6</ele>
        <time>2021-09-12T08:07:44Z</time>
      </trkpt>
      <trkpt lat="44.15143" lon="5.34031">
        <ele>1399.6</ele>
        <time>2021-09-12T08:07:47Z</time>
      </trkpt>
      <trkpt lat="44.15154" lon="5.3403">
        <ele>1400.6</ele>
        <time>2021-09-12T08:07:56Z</time>
      </trkpt>
      <trkpt lat="44.15157" lon="5.34029">
        <ele>1400.8</ele>
        <time>2021-09-12T08:07:58Z</time>
      </trkpt>
      <trkpt lat="44.15163" lon="5.34026">
        <ele>1401.8</ele>
        <time>2021-09-12T08:08:02Z</time>
      </trkpt>
      <trkpt lat="44.15172" lon="5.34026">
        <ele>1402.6</ele>
        <time>2021-09-12T08:08:09Z</time>
      </trkpt>
      <trkpt lat="44.15174" lon="5.34027">
        <ele>1402.8</ele>
        <time>2021-09-12T08:08:11Z</time>
      </trkpt>
      <trkpt lat="44.15176" lon="5.34027">
        <ele>1403</ele>
        <time>2021-09-12T08:08:12Z</time>
      </trkpt>
      <trkpt lat="44.15181" lon="5.34026">
        <ele>1404.2</ele>
        <time>2021-09-12T08:08:16Z</time>
      </trkpt>
      <trkpt lat="44.15193" lon="5.34023">
        <ele>1405.4</ele>
        <time>2021-09-12T08:08:24Z</time>
      </trkpt>
      <trkpt lat="44.15198" lon="5.34021">
        <ele>1406.4</ele>
        <time>2021-09-12T08:08:28Z</time>
      </trkpt>
      <trkpt lat="44.15206" lon="5.34019">
        <ele>1407.4</ele>
        <time>2021-09-12T08:08:33Z</time>
      </trkpt>
      <trkpt lat="44.15215" lon="5.34015">
        <ele>1408.4</ele>
        <time>2021-09-12T08:08:40Z</time>
      </trkpt>
      <trkpt lat="44.15219" lon="5.34013">
        <ele>1409.2</ele>
        <time>2021-09-12T08:08:43Z</time>
      </trkpt>
      <trkpt lat="44.15223" lon="5.34013">
        <ele>1409.6</ele>
        <time>2021-09-12T08:08:45Z</time>
      </trkpt>
      <trkpt lat="44.15224" lon="5.34013">
        <ele>1409.8</ele>
        <time>2021-09-12T08:08:46Z</time>
      </trkpt>
      <trkpt lat="44.15234" lon="5.34012">
        <ele>1410.8</ele>
        <time>2021-09-12T08:08:54Z</time>
      </trkpt>
      <trkpt lat="44.15244" lon="5.34008">
        <ele>1411.8</ele>
        <time>2021-09-12T08:09:01Z</time>
      </trkpt>
      <trkpt lat="44.15249" lon="5.34008">
        <ele>1412.8</ele>
        <time>2021-09-12T08:09:06Z</time>
      </trkpt>
      <trkpt lat="44.15253" lon="5.34006">
        <ele>1413.4</ele>
        <time>2021-09-12T08:09:09Z</time>
      </trkpt>
      <trkpt lat="44.15258" lon="5.34005">
        <ele>1413.8</ele>
        <time>2021-09-12T08:09:12Z</time>
      </trkpt>
      <trkpt lat="44.15268" lon="5.34001">
        <ele>1415</ele>
        <time>2021-09-12T08:09:20Z</time>
      </trkpt>
      <trkpt lat="44.15276" lon="5.33999">
        <ele>1416</ele>
        <time>2021-09-12T08:09:26Z</time>
      </trkpt>
      <trkpt lat="44.15281" lon="5.33998">
        <ele>1416.4</ele>
        <time>2021-09-12T08:09:30Z</time>
      </trkpt>
      <trkpt lat="44.15289" lon="5.33995">
        <ele>1417.2</ele>
        <time>2021-09-12T08:09:35Z</time>
      </trkpt>
      <trkpt lat="44.15298" lon="5.33992">
        <ele>1418.2</ele>
        <time>2021-09-12T08:09:41Z</time>
      </trkpt>
      <trkpt lat="44.1531" lon="5.33987">
        <ele>1419.2</ele>
        <time>2021-09-12T08:09:49Z</time>
      </trkpt>
      <trkpt lat="44.15319" lon="5.33983">
        <ele>1420.4</ele>
        <time>2021-09-12T08:09:56Z</time>
      </trkpt>
      <trkpt lat="44.15326" lon="5.33982">
        <ele>1421</ele>
        <time>2021-09-12T08:10:01Z</time>
      </trkpt>
      <trkpt lat="44.1533" lon="5.33982">
        <ele>1421.2</ele>
        <time>2021-09-12T08:10:04Z</time>
      </trkpt>
      <trkpt lat="44.15333" lon="5.33979">
        <ele>1421.4</ele>
        <time>2021-09-12T08:10:07Z</time>
      </trkpt>
      <trkpt lat="44.15347" lon="5.33971">
        <ele>1422.6</ele>
        <time>2021-09-12T08:10:18Z</time>
      </trkpt>
      <trkpt lat="44.15357" lon="5.33966">
        <ele>1423.6</ele>
        <time>2021-09-12T08:10:26Z</time>
      </trkpt>
      <trkpt lat="44.15366" lon="5.33962">
        <ele>1424.6</ele>
        <time>2021-09-12T08:10:33Z</time>
      </trkpt>
      <trkpt lat="44.15378" lon="5.33954">
        <ele>1425.8</ele>
        <time>2021-09-12T08:10:42Z</time>
      </trkpt>
      <trkpt lat="44.15393" lon="5.33946">
        <ele>1426.8</ele>
        <time>2021-09-12T08:10:52Z</time>
      </trkpt>
      <trkpt lat="44.15403" lon="5.33942">
        <ele>1428</ele>
        <time>2021-09-12T08:10:58Z</time>
      </trkpt>
      <trkpt lat="44.1542" lon="5.33931">
        <ele>1429</ele>
        <time>2021-09-12T08:11:10Z</time>
      </trkpt>
      <trkpt lat="44.15431" lon="5.33925">
        <ele>1430</ele>
        <time>2021-09-12T08:11:17Z</time>
      </trkpt>
      <trkpt lat="44.15449" lon="5.33916">
        <ele>1431.2</ele>
        <time>2021-09-12T08:11:28Z</time>
      </trkpt>
      <trkpt lat="44.15456" lon="5.33914">
        <ele>1432.2</ele>
        <time>2021-09-12T08:11:33Z</time>
      </trkpt>
      <trkpt lat="44.15477" lon="5.33906">
        <ele>1433.4</ele>
        <time>2021-09-12T08:11:49Z</time>
      </trkpt>
      <trkpt lat="44.15479" lon="5.33906">
        <ele>1433.6</ele>
        <time>2021-09-12T08:11:50Z</time>
      </trkpt>
      <trkpt lat="44.15484" lon="5.33905">
        <ele>1434.4</ele>
        <time>2021-09-12T08:11:54Z</time>
      </trkpt>
      <trkpt lat="44.15485" lon="5.33902">
        <ele>1434.6</ele>
        <time>2021-09-12T08:11:56Z</time>
      </trkpt>
      <trkpt lat="44.15473" lon="5.33896">
        <ele>1435.8</ele>
        <time>2021-09-12T08:12:05Z</time>
      </trkpt>
      <trkpt lat="44.15468" lon="5.33895">
        <ele>1437</ele>
        <time>2021-09-12T08:12:09Z</time>
      </trkpt>
      <trkpt lat="44.15458" lon="5.33895">
        <ele>1438</ele>
        <time>2021-09-12T08:12:14Z</time>
      </trkpt>
      <trkpt lat="44.15435" lon="5.33893">
        <ele>1439.2</ele>
        <time>2021-09-12T08:12:26Z</time>
      </trkpt>
      <trkpt lat="44.15418" lon="5.33892">
        <ele>1440.2</ele>
        <time>2021-09-12T08:12:35Z</time>
      </trkpt>
      <trkpt lat="44.15395" lon="5.33887">
        <ele>1441.2</ele>
        <time>2021-09-12T08:12:47Z</time>
      </trkpt>
      <trkpt lat="44.15378" lon="5.33883">
        <ele>1442.4</ele>
        <time>2021-09-12T08:12:55Z</time>
      </trkpt>
      <trkpt lat="44.15354" lon="5.33868">
        <ele>1443.4</ele>
        <time>2021-09-12T08:13:07Z</time>
      </trkpt>
      <trkpt lat="44.15336" lon="5.33841">
        <ele>1444.4</ele>
        <time>2021-09-12T08:13:22Z</time>
      </trkpt>
      <trkpt lat="44.15316" lon="5.33793">
        <ele>1443.2</ele>
        <time>2021-09-12T08:13:40Z</time>
      </trkpt>
      <trkpt lat="44.1531" lon="5.33782">
        <ele>1442</ele>
        <time>2021-09-12T08:13:44Z</time>
      </trkpt>
      <trkpt lat="44.15307" lon="5.33772">
        <ele>1441</ele>
        <time>2021-09-12T08:13:47Z</time>
      </trkpt>
      <trkpt lat="44.15309" lon="5.33758">
        <ele>1440</ele>
        <time>2021-09-12T08:13:50Z</time>
      </trkpt>
      <trkpt lat="44.1531" lon="5.3375">
        <ele>1438.8</ele>
        <time>2021-09-12T08:13:52Z</time>
      </trkpt>
      <trkpt lat="44.15314" lon="5.33738">
        <ele>1439.2</ele>
        <time>2021-09-12T08:13:58Z</time>
      </trkpt>
      <trkpt lat="44.15319" lon="5.33735">
        <ele>1439.8</ele>
        <time>2021-09-12T08:14:02Z</time>
      </trkpt>
      <trkpt lat="44.15328" lon="5.33734">
        <ele>1440.8</ele>
        <time>2021-09-12T08:14:09Z</time>
      </trkpt>
      <trkpt lat="44.15336" lon="5.3373">
        <ele>1441.8</ele>
        <time>2021-09-12T08:14:15Z</time>
      </trkpt>
      <trkpt lat="44.15343" lon="5.33728">
        <ele>1442.8</ele>
        <time>2021-09-12T08:14:21Z</time>
      </trkpt>
      <trkpt lat="44.15351" lon="5.33725">
        <ele>1443.8</ele>
        <time>2021-09-12T08:14:27Z</time>
      </trkpt>
      <trkpt lat="44.1536" lon="5.33722">
        <ele>1445</ele>
        <time>2021-09-12T08:14:34Z</time>
      </trkpt>
      <trkpt lat="44.15372" lon="5.33716">
        <ele>1446</ele>
        <time>2021-09-12T08:14:43Z</time>
      </trkpt>
      <trkpt lat="44.15384" lon="5.33711">
        <ele>1447.2</ele>
        <time>2021-09-12T08:14:52Z</time>
      </trkpt>
      <trkpt lat="44.15395" lon="5.33706">
        <ele>1448.2</ele>
        <time>2021-09-12T08:14:59Z</time>
      </trkpt>
      <trkpt lat="44.15409" lon="5.33698">
        <ele>1449.4</ele>
        <time>2021-09-12T08:15:08Z</time>
      </trkpt>
      <trkpt lat="44.15419" lon="5.33693">
        <ele>1450.6</ele>
        <time>2021-09-12T08:15:16Z</time>
      </trkpt>
      <trkpt lat="44.15431" lon="5.33685">
        <ele>1451.6</ele>
        <time>2021-09-12T08:15:26Z</time>
      </trkpt>
      <trkpt lat="44.15442" lon="5.3368">
        <ele>1452.6</ele>
        <time>2021-09-12T08:15:34Z</time>
      </trkpt>
      <trkpt lat="44.15449" lon="5.33675">
        <ele>1453.8</ele>
        <time>2021-09-12T08:15:41Z</time>
      </trkpt>
      <trkpt lat="44.15459" lon="5.33669">
        <ele>1454.8</ele>
        <time>2021-09-12T08:15:48Z</time>
      </trkpt>
      <trkpt lat="44.15469" lon="5.33661">
        <ele>1456</ele>
        <time>2021-09-12T08:15:57Z</time>
      </trkpt>
      <trkpt lat="44.15477" lon="5.33655">
        <ele>1457</ele>
        <time>2021-09-12T08:16:04Z</time>
      </trkpt>
      <trkpt lat="44.15488" lon="5.33648">
        <ele>1458.2</ele>
        <time>2021-09-12T08:16:12Z</time>
      </trkpt>
      <trkpt lat="44.15493" lon="5.33643">
        <ele>1459.4</ele>
        <time>2021-09-12T08:16:17Z</time>
      </trkpt>
      <trkpt lat="44.15502" lon="5.33634">
        <ele>1460.4</ele>
        <time>2021-09-12T08:16:26Z</time>
      </trkpt>
      <trkpt lat="44.15509" lon="5.33626">
        <ele>1461.4</ele>
        <time>2021-09-12T08:16:33Z</time>
      </trkpt>
      <trkpt lat="44.15517" lon="5.33618">
        <ele>1462.6</ele>
        <time>2021-09-12T08:16:41Z</time>
      </trkpt>
      <trkpt lat="44.15523" lon="5.33611">
        <ele>1463.4</ele>
        <time>2021-09-12T08:16:48Z</time>
      </trkpt>
      <trkpt lat="44.15525" lon="5.33609">
        <ele>1463.6</ele>
        <time>2021-09-12T08:16:50Z</time>
      </trkpt>
      <trkpt lat="44.1553" lon="5.33601">
        <ele>1464.8</ele>
        <time>2021-09-12T08:16:56Z</time>
      </trkpt>
      <trkpt lat="44.15536" lon="5.33594">
        <ele>1465.8</ele>
        <time>2021-09-12T08:17:02Z</time>
      </trkpt>
      <trkpt lat="44.15542" lon="5.33586">
        <ele>1466.8</ele>
        <time>2021-09-12T08:17:09Z</time>
      </trkpt>
      <trkpt lat="44.15549" lon="5.33576">
        <ele>1467.8</ele>
        <time>2021-09-12T08:17:17Z</time>
      </trkpt>
      <trkpt lat="44.15556" lon="5.33564">
        <ele>1469</ele>
        <time>2021-09-12T08:17:25Z</time>
      </trkpt>
      <trkpt lat="44.15561" lon="5.33555">
        <ele>1470</ele>
        <time>2021-09-12T08:17:31Z</time>
      </trkpt>
      <trkpt lat="44.15567" lon="5.33543">
        <ele>1471.2</ele>
        <time>2021-09-12T08:17:39Z</time>
      </trkpt>
      <trkpt lat="44.15571" lon="5.33527">
        <ele>1472.2</ele>
        <time>2021-09-12T08:17:48Z</time>
      </trkpt>
      <trkpt lat="44.15574" lon="5.33513">
        <ele>1473.4</ele>
        <time>2021-09-12T08:17:56Z</time>
      </trkpt>
      <trkpt lat="44.15579" lon="5.3349">
        <ele>1474.6</ele>
        <time>2021-09-12T08:18:08Z</time>
      </trkpt>
      <trkpt lat="44.15582" lon="5.3346">
        <ele>1475.6</ele>
        <time>2021-09-12T08:18:20Z</time>
      </trkpt>
      <trkpt lat="44.15581" lon="5.33436">
        <ele>1476.6</ele>
        <time>2021-09-12T08:18:29Z</time>
      </trkpt>
      <trkpt lat="44.15575" lon="5.33409">
        <ele>1477.6</ele>
        <time>2021-09-12T08:18:40Z</time>
      </trkpt>
      <trkpt lat="44.15566" lon="5.33383">
        <ele>1478.8</ele>
        <time>2021-09-12T08:18:51Z</time>
      </trkpt>
      <trkpt lat="44.1556" lon="5.33365">
        <ele>1479.8</ele>
        <time>2021-09-12T08:18:59Z</time>
      </trkpt>
      <trkpt lat="44.15551" lon="5.33343">
        <ele>1480.8</ele>
        <time>2021-09-12T08:19:09Z</time>
      </trkpt>
      <trkpt lat="44.15535" lon="5.33273">
        <ele>1481.8</ele>
        <time>2021-09-12T08:19:29Z</time>
      </trkpt>
      <trkpt lat="44.15538" lon="5.33242">
        <ele>1483</ele>
        <time>2021-09-12T08:19:38Z</time>
      </trkpt>
      <trkpt lat="44.15544" lon="5.33227">
        <ele>1484</ele>
        <time>2021-09-12T08:19:44Z</time>
      </trkpt>
      <trkpt lat="44.15551" lon="5.33216">
        <ele>1485.2</ele>
        <time>2021-09-12T08:19:50Z</time>
      </trkpt>
      <trkpt lat="44.15557" lon="5.33206">
        <ele>1486.2</ele>
        <time>2021-09-12T08:19:56Z</time>
      </trkpt>
      <trkpt lat="44.15563" lon="5.33196">
        <ele>1487.4</ele>
        <time>2021-09-12T08:20:02Z</time>
      </trkpt>
      <trkpt lat="44.1557" lon="5.33189">
        <ele>1488.4</ele>
        <time>2021-09-12T08:20:08Z</time>
      </trkpt>
      <trkpt lat="44.15577" lon="5.33179">
        <ele>1489.6</ele>
        <time>2021-09-12T08:20:15Z</time>
      </trkpt>
      <trkpt lat="44.15584" lon="5.33172">
        <ele>1490.6</ele>
        <time>2021-09-12T08:20:21Z</time>
      </trkpt>
      <trkpt lat="44.1559" lon="5.33164">
        <ele>1491.8</ele>
        <time>2021-09-12T08:20:27Z</time>
      </trkpt>
      <trkpt lat="44.15598" lon="5.33155">
        <ele>1492.8</ele>
        <time>2021-09-12T08:20:35Z</time>
      </trkpt>
      <trkpt lat="44.15606" lon="5.33147">
        <ele>1493.8</ele>
        <time>2021-09-12T08:20:43Z</time>
      </trkpt>
      <trkpt lat="44.15614" lon="5.3314">
        <ele>1494.8</ele>
        <time>2021-09-12T08:20:50Z</time>
      </trkpt>
      <trkpt lat="44.15623" lon="5.33129">
        <ele>1495.8</ele>
        <time>2021-09-12T08:20:59Z</time>
      </trkpt>
      <trkpt lat="44.1563" lon="5.33123">
        <ele>1496.8</ele>
        <time>2021-09-12T08:21:05Z</time>
      </trkpt>
      <trkpt lat="44.15642" lon="5.33113">
        <ele>1498</ele>
        <time>2021-09-12T08:21:15Z</time>
      </trkpt>
      <trkpt lat="44.15653" lon="5.33104">
        <ele>1499</ele>
        <time>2021-09-12T08:21:23Z</time>
      </trkpt>
      <trkpt lat="44.15671" lon="5.33092">
        <ele>1500.2</ele>
        <time>2021-09-12T08:21:35Z</time>
      </trkpt>
      <trkpt lat="44.15685" lon="5.33083">
        <ele>1501.2</ele>
        <time>2021-09-12T08:21:44Z</time>
      </trkpt>
      <trkpt lat="44.15698" lon="5.33075">
        <ele>1502.4</ele>
        <time>2021-09-12T08:21:52Z</time>
      </trkpt>
      <trkpt lat="44.15712" lon="5.33068">
        <ele>1503.4</ele>
        <time>2021-09-12T08:22:01Z</time>
      </trkpt>
      <trkpt lat="44.15727" lon="5.33061">
        <ele>1504.4</ele>
        <time>2021-09-12T08:22:10Z</time>
      </trkpt>
      <trkpt lat="44.15742" lon="5.33053">
        <ele>1505.6</ele>
        <time>2021-09-12T08:22:21Z</time>
      </trkpt>
      <trkpt lat="44.15754" lon="5.33045">
        <ele>1506.6</ele>
        <time>2021-09-12T08:22:29Z</time>
      </trkpt>
      <trkpt lat="44.15769" lon="5.3304">
        <ele>1507.8</ele>
        <time>2021-09-12T08:22:39Z</time>
      </trkpt>
      <trkpt lat="44.15782" lon="5.33035">
        <ele>1508.8</ele>
        <time>2021-09-12T08:22:47Z</time>
      </trkpt>
      <trkpt lat="44.15791" lon="5.33031">
        <ele>1510</ele>
        <time>2021-09-12T08:22:54Z</time>
      </trkpt>
      <trkpt lat="44.15801" lon="5.33026">
        <ele>1511</ele>
        <time>2021-09-12T08:23:01Z</time>
      </trkpt>
      <trkpt lat="44.15809" lon="5.33022">
        <ele>1512</ele>
        <time>2021-09-12T08:23:07Z</time>
      </trkpt>
      <trkpt lat="44.15815" lon="5.33021">
        <ele>1512.4</ele>
        <time>2021-09-12T08:23:11Z</time>
      </trkpt>
      <trkpt lat="44.1582" lon="5.33023">
        <ele>1513</ele>
        <time>2021-09-12T08:23:14Z</time>
      </trkpt>
      <trkpt lat="44.15825" lon="5.33028">
        <ele>1514.2</ele>
        <time>2021-09-12T08:23:19Z</time>
      </trkpt>
      <trkpt lat="44.15833" lon="5.33038">
        <ele>1515.2</ele>
        <time>2021-09-12T08:23:26Z</time>
      </trkpt>
      <trkpt lat="44.15835" lon="5.33048">
        <ele>1516.2</ele>
        <time>2021-09-12T08:23:31Z</time>
      </trkpt>
      <trkpt lat="44.15835" lon="5.33069">
        <ele>1517.4</ele>
        <time>2021-09-12T08:23:41Z</time>
      </trkpt>
      <trkpt lat="44.15826" lon="5.33086">
        <ele>1518.4</ele>
        <time>2021-09-12T08:23:51Z</time>
      </trkpt>
      <trkpt lat="44.15815" lon="5.33101">
        <ele>1519.4</ele>
        <time>2021-09-12T08:24:02Z</time>
      </trkpt>
      <trkpt lat="44.1581" lon="5.33113">
        <ele>1520.6</ele>
        <time>2021-09-12T08:24:10Z</time>
      </trkpt>
      <trkpt lat="44.15804" lon="5.33127">
        <ele>1521.6</ele>
        <time>2021-09-12T08:24:19Z</time>
      </trkpt>
      <trkpt lat="44.15801" lon="5.33136">
        <ele>1522.8</ele>
        <time>2021-09-12T08:24:25Z</time>
      </trkpt>
      <trkpt lat="44.15798" lon="5.33148">
        <ele>1523.8</ele>
        <time>2021-09-12T08:24:32Z</time>
      </trkpt>
      <trkpt lat="44.15797" lon="5.33165">
        <ele>1524.8</ele>
        <time>2021-09-12T08:24:40Z</time>
      </trkpt>
      <trkpt lat="44.15793" lon="5.3319">
        <ele>1526</ele>
        <time>2021-09-12T08:24:50Z</time>
      </trkpt>
      <trkpt lat="44.15788" lon="5.33222">
        <ele>1526.2</ele>
        <time>2021-09-12T08:25:02Z</time>
      </trkpt>
      <trkpt lat="44.15781" lon="5.33274">
        <ele>1527</ele>
        <time>2021-09-12T08:25:21Z</time>
      </trkpt>
      <trkpt lat="44.15776" lon="5.33309">
        <ele>1528.2</ele>
        <time>2021-09-12T08:26:04Z</time>
      </trkpt>
      <trkpt lat="44.15776" lon="5.33309">
        <ele>1528.2</ele>
        <time>2021-09-12T08:26:05Z</time>
      </trkpt>
      <trkpt lat="44.15775" lon="5.33308">
        <ele>1527</ele>
        <time>2021-09-12T08:26:31Z</time>
      </trkpt>
      <trkpt lat="44.15775" lon="5.33309">
        <ele>1528.2</ele>
        <time>2021-09-12T08:26:41Z</time>
      </trkpt>
      <trkpt lat="44.15775" lon="5.33308">
        <ele>1528.2</ele>
        <time>2021-09-12T08:26:48Z</time>
      </trkpt>
      <trkpt lat="44.15775" lon="5.33301">
        <ele>1528.2</ele>
        <time>2021-09-12T08:27:33Z</time>
      </trkpt>
      <trkpt lat="44.15805" lon="5.33257">
        <ele>1526.8</ele>
        <time>2021-09-12T08:27:51Z</time>
      </trkpt>
      <trkpt lat="44.15823" lon="5.33245">
        <ele>1526</ele>
        <time>2021-09-12T08:27:59Z</time>
      </trkpt>
      <trkpt lat="44.15824" lon="5.33237">
        <ele>1525.6</ele>
        <time>2021-09-12T08:28:01Z</time>
      </trkpt>
      <trkpt lat="44.15823" lon="5.33193">
        <ele>1524.6</ele>
        <time>2021-09-12T08:28:10Z</time>
      </trkpt>
      <trkpt lat="44.1583" lon="5.33157">
        <ele>1524</ele>
        <time>2021-09-12T08:28:18Z</time>
      </trkpt>
      <trkpt lat="44.15834" lon="5.33161">
        <ele>1523.6</ele>
        <time>2021-09-12T08:28:20Z</time>
      </trkpt>
      <trkpt lat="44.15835" lon="5.33164">
        <ele>1523.2</ele>
        <time>2021-09-12T08:28:21Z</time>
      </trkpt>
      <trkpt lat="44.15835" lon="5.33181">
        <ele>1523.2</ele>
        <time>2021-09-12T08:28:40Z</time>
      </trkpt>
      <trkpt lat="44.15834" lon="5.33186">
        <ele>1523.2</ele>
        <time>2021-09-12T08:28:59Z</time>
      </trkpt>
      <trkpt lat="44.15834" lon="5.33206">
        <ele>1524</ele>
        <time>2021-09-12T08:30:34Z</time>
      </trkpt>
      <trkpt lat="44.15834" lon="5.33206">
        <ele>1524</ele>
        <time>2021-09-12T08:31:22Z</time>
      </trkpt>
      <trkpt lat="44.15833" lon="5.33214">
        <ele>1523.8</ele>
        <time>2021-09-12T08:31:58Z</time>
      </trkpt>
      <trkpt lat="44.15833" lon="5.33282">
        <ele>1524.8</ele>
        <time>2021-09-12T08:32:16Z</time>
      </trkpt>
      <trkpt lat="44.15828" lon="5.33356">
        <ele>1524</ele>
        <time>2021-09-12T08:32:38Z</time>
      </trkpt>
      <trkpt lat="44.15826" lon="5.3339">
        <ele>1523.8</ele>
        <time>2021-09-12T08:32:48Z</time>
      </trkpt>
      <trkpt lat="44.15827" lon="5.33405">
        <ele>1523.2</ele>
        <time>2021-09-12T08:32:53Z</time>
      </trkpt>
      <trkpt lat="44.15823" lon="5.33418">
        <ele>1522.6</ele>
        <time>2021-09-12T08:32:58Z</time>
      </trkpt>
      <trkpt lat="44.1582" lon="5.33427">
        <ele>1522.8</ele>
        <time>2021-09-12T08:33:01Z</time>
      </trkpt>
      <trkpt lat="44.15799" lon="5.33458">
        <ele>1523.2</ele>
        <time>2021-09-12T08:33:18Z</time>
      </trkpt>
      <trkpt lat="44.15795" lon="5.33463">
        <ele>1523.4</ele>
        <time>2021-09-12T08:33:22Z</time>
      </trkpt>
      <trkpt lat="44.1579" lon="5.33468">
        <ele>1523.6</ele>
        <time>2021-09-12T08:33:26Z</time>
      </trkpt>
      <trkpt lat="44.15789" lon="5.33468">
        <ele>1523.8</ele>
        <time>2021-09-12T08:33:27Z</time>
      </trkpt>
      <trkpt lat="44.15786" lon="5.33471">
        <ele>1524</ele>
        <time>2021-09-12T08:33:32Z</time>
      </trkpt>
      <trkpt lat="44.15785" lon="5.33477">
        <ele>1524.4</ele>
        <time>2021-09-12T08:33:35Z</time>
      </trkpt>
      <trkpt lat="44.15786" lon="5.33486">
        <ele>1523.8</ele>
        <time>2021-09-12T08:33:38Z</time>
      </trkpt>
      <trkpt lat="44.15783" lon="5.33493">
        <ele>1523.2</ele>
        <time>2021-09-12T08:33:41Z</time>
      </trkpt>
      <trkpt lat="44.15784" lon="5.335">
        <ele>1523</ele>
        <time>2021-09-12T08:33:44Z</time>
      </trkpt>
      <trkpt lat="44.15784" lon="5.33503">
        <ele>1522.8</ele>
        <time>2021-09-12T08:33:46Z</time>
      </trkpt>
      <trkpt lat="44.15783" lon="5.33505">
        <ele>1522.6</ele>
        <time>2021-09-12T08:33:47Z</time>
      </trkpt>
      <trkpt lat="44.1578" lon="5.33527">
        <ele>1521.8</ele>
        <time>2021-09-12T08:33:53Z</time>
      </trkpt>
      <trkpt lat="44.15775" lon="5.33555">
        <ele>1520.6</ele>
        <time>2021-09-12T08:34:01Z</time>
      </trkpt>
      <trkpt lat="44.15775" lon="5.33556">
        <ele>1520.6</ele>
        <time>2021-09-12T08:34:02Z</time>
      </trkpt>
      <trkpt lat="44.15775" lon="5.33562">
        <ele>1520.4</ele>
        <time>2021-09-12T08:34:06Z</time>
      </trkpt>
      <trkpt lat="44.15773" lon="5.33568">
        <ele>1520.2</ele>
        <time>2021-09-12T08:34:08Z</time>
      </trkpt>
      <trkpt lat="44.15772" lon="5.33581">
        <ele>1519.6</ele>
        <time>2021-09-12T08:34:12Z</time>
      </trkpt>
      <trkpt lat="44.15769" lon="5.3361">
        <ele>1519</ele>
        <time>2021-09-12T08:34:18Z</time>
      </trkpt>
      <trkpt lat="44.15767" lon="5.33616">
        <ele>1518.6</ele>
        <time>2021-09-12T08:34:19Z</time>
      </trkpt>
      <trkpt lat="44.15764" lon="5.33627">
        <ele>1517.6</ele>
        <time>2021-09-12T08:34:21Z</time>
      </trkpt>
      <trkpt lat="44.15759" lon="5.33643">
        <ele>1516.4</ele>
        <time>2021-09-12T08:34:24Z</time>
      </trkpt>
      <trkpt lat="44.15755" lon="5.3365">
        <ele>1515.4</ele>
        <time>2021-09-12T08:34:30Z</time>
      </trkpt>
      <trkpt lat="44.15759" lon="5.33657">
        <ele>1514.8</ele>
        <time>2021-09-12T08:34:43Z</time>
      </trkpt>
      <trkpt lat="44.15766" lon="5.33666">
        <ele>1514.2</ele>
        <time>2021-09-12T08:34:46Z</time>
      </trkpt>
      <trkpt lat="44.1578" lon="5.33677">
        <ele>1513</ele>
        <time>2021-09-12T08:34:51Z</time>
      </trkpt>
      <trkpt lat="44.15785" lon="5.33683">
        <ele>1511.8</ele>
        <time>2021-09-12T08:34:53Z</time>
      </trkpt>
      <trkpt lat="44.1579" lon="5.3369">
        <ele>1510.6</ele>
        <time>2021-09-12T08:34:55Z</time>
      </trkpt>
      <trkpt lat="44.15794" lon="5.33698">
        <ele>1509.4</ele>
        <time>2021-09-12T08:34:57Z</time>
      </trkpt>
      <trkpt lat="44.15796" lon="5.33705">
        <ele>1508.2</ele>
        <time>2021-09-12T08:34:59Z</time>
      </trkpt>
      <trkpt lat="44.15797" lon="5.33712">
        <ele>1507.4</ele>
        <time>2021-09-12T08:35:01Z</time>
      </trkpt>
      <trkpt lat="44.15798" lon="5.33715">
        <ele>1507.2</ele>
        <time>2021-09-12T08:35:02Z</time>
      </trkpt>
      <trkpt lat="44.158" lon="5.3372">
        <ele>1506.6</ele>
        <time>2021-09-12T08:35:04Z</time>
      </trkpt>
      <trkpt lat="44.15805" lon="5.33723">
        <ele>1505.8</ele>
        <time>2021-09-12T08:35:06Z</time>
      </trkpt>
      <trkpt lat="44.15814" lon="5.33732">
        <ele>1505</ele>
        <time>2021-09-12T08:35:09Z</time>
      </trkpt>
      <trkpt lat="44.15818" lon="5.33737">
        <ele>1504.6</ele>
        <time>2021-09-12T08:35:10Z</time>
      </trkpt>
      <trkpt lat="44.15835" lon="5.33755">
        <ele>1503.6</ele>
        <time>2021-09-12T08:35:15Z</time>
      </trkpt>
      <trkpt lat="44.15873" lon="5.3379">
        <ele>1502.8</ele>
        <time>2021-09-12T08:36:42Z</time>
      </trkpt>
      <trkpt lat="44.15877" lon="5.33793">
        <ele>1502</ele>
        <time>2021-09-12T08:36:43Z</time>
      </trkpt>
      <trkpt lat="44.15882" lon="5.33796">
        <ele>1501.2</ele>
        <time>2021-09-12T08:36:44Z</time>
      </trkpt>
      <trkpt lat="44.15887" lon="5.33798">
        <ele>1500.6</ele>
        <time>2021-09-12T08:36:45Z</time>
      </trkpt>
      <trkpt lat="44.15895" lon="5.33804">
        <ele>1499.4</ele>
        <time>2021-09-12T08:36:47Z</time>
      </trkpt>
      <trkpt lat="44.15903" lon="5.33819">
        <ele>1498.6</ele>
        <time>2021-09-12T08:36:50Z</time>
      </trkpt>
      <trkpt lat="44.15914" lon="5.33822">
        <ele>1498.4</ele>
        <time>2021-09-12T08:36:54Z</time>
      </trkpt>
      <trkpt lat="44.15916" lon="5.33823">
        <ele>1498.2</ele>
        <time>2021-09-12T08:36:55Z</time>
      </trkpt>
      <trkpt lat="44.15919" lon="5.33829">
        <ele>1498</ele>
        <time>2021-09-12T08:36:58Z</time>
      </trkpt>
      <trkpt lat="44.15924" lon="5.33831">
        <ele>1497</ele>
        <time>2021-09-12T08:37:01Z</time>
      </trkpt>
      <trkpt lat="44.15929" lon="5.33833">
        <ele>1495.8</ele>
        <time>2021-09-12T08:37:04Z</time>
      </trkpt>
      <trkpt lat="44.15934" lon="5.3384">
        <ele>1494.2</ele>
        <time>2021-09-12T08:37:07Z</time>
      </trkpt>
      <trkpt lat="44.15936" lon="5.33845">
        <ele>1492.4</ele>
        <time>2021-09-12T08:37:09Z</time>
      </trkpt>
      <trkpt lat="44.15937" lon="5.33847">
        <ele>1491.6</ele>
        <time>2021-09-12T08:37:10Z</time>
      </trkpt>
      <trkpt lat="44.15939" lon="5.33849">
        <ele>1491</ele>
        <time>2021-09-12T08:37:11Z</time>
      </trkpt>
      <trkpt lat="44.15942" lon="5.33855">
        <ele>1489.8</ele>
        <time>2021-09-12T08:37:13Z</time>
      </trkpt>
      <trkpt lat="44.15944" lon="5.33863">
        <ele>1488.6</ele>
        <time>2021-09-12T08:37:16Z</time>
      </trkpt>
      <trkpt lat="44.15947" lon="5.33866">
        <ele>1487</ele>
        <time>2021-09-12T08:37:18Z</time>
      </trkpt>
      <trkpt lat="44.1595" lon="5.33869">
        <ele>1486</ele>
        <time>2021-09-12T08:37:20Z</time>
      </trkpt>
      <trkpt lat="44.15951" lon="5.3387">
        <ele>1485.6</ele>
        <time>2021-09-12T08:37:21Z</time>
      </trkpt>
      <trkpt lat="44.15953" lon="5.33873">
        <ele>1485</ele>
        <time>2021-09-12T08:37:22Z</time>
      </trkpt>
      <trkpt lat="44.15953" lon="5.33876">
        <ele>1484.4</ele>
        <time>2021-09-12T08:37:23Z</time>
      </trkpt>
      <trkpt lat="44.15955" lon="5.33884">
        <ele>1482.6</ele>
        <time>2021-09-12T08:37:25Z</time>
      </trkpt>
      <trkpt lat="44.15956" lon="5.33888">
        <ele>1481.4</ele>
        <time>2021-09-12T08:37:26Z</time>
      </trkpt>
      <trkpt lat="44.15957" lon="5.33892">
        <ele>1480</ele>
        <time>2021-09-12T08:37:27Z</time>
      </trkpt>
      <trkpt lat="44.15957" lon="5.33897">
        <ele>1478.8</ele>
        <time>2021-09-12T08:37:28Z</time>
      </trkpt>
      <trkpt lat="44.15958" lon="5.33905">
        <ele>1477</ele>
        <time>2021-09-12T08:37:30Z</time>
      </trkpt>
      <trkpt lat="44.15959" lon="5.33909">
        <ele>1475.8</ele>
        <time>2021-09-12T08:37:31Z</time>
      </trkpt>
      <trkpt lat="44.15963" lon="5.33912">
        <ele>1474</ele>
        <time>2021-09-12T08:37:33Z</time>
      </trkpt>
      <trkpt lat="44.15968" lon="5.33914">
        <ele>1472.2</ele>
        <time>2021-09-12T08:37:35Z</time>
      </trkpt>
      <trkpt lat="44.15973" lon="5.33916">
        <ele>1470.4</ele>
        <time>2021-09-12T08:37:37Z</time>
      </trkpt>
      <trkpt lat="44.15975" lon="5.33916">
        <ele>1469.2</ele>
        <time>2021-09-12T08:37:38Z</time>
      </trkpt>
      <trkpt lat="44.15979" lon="5.33917">
        <ele>1468</ele>
        <time>2021-09-12T08:37:39Z</time>
      </trkpt>
      <trkpt lat="44.15981" lon="5.33919">
        <ele>1466.8</ele>
        <time>2021-09-12T08:37:40Z</time>
      </trkpt>
      <trkpt lat="44.15984" lon="5.33921">
        <ele>1465.8</ele>
        <time>2021-09-12T08:37:41Z</time>
      </trkpt>
      <trkpt lat="44.15987" lon="5.33923">
        <ele>1464.4</ele>
        <time>2021-09-12T08:37:42Z</time>
      </trkpt>
      <trkpt lat="44.1599" lon="5.33924">
        <ele>1463.2</ele>
        <time>2021-09-12T08:37:43Z</time>
      </trkpt>
      <trkpt lat="44.15993" lon="5.33926">
        <ele>1462</ele>
        <time>2021-09-12T08:37:44Z</time>
      </trkpt>
      <trkpt lat="44.15998" lon="5.33931">
        <ele>1460.2</ele>
        <time>2021-09-12T08:37:46Z</time>
      </trkpt>
      <trkpt lat="44.16001" lon="5.33938">
        <ele>1458.2</ele>
        <time>2021-09-12T08:37:48Z</time>
      </trkpt>
      <trkpt lat="44.16002" lon="5.33943">
        <ele>1457</ele>
        <time>2021-09-12T08:37:49Z</time>
      </trkpt>
      <trkpt lat="44.16004" lon="5.33947">
        <ele>1456</ele>
        <time>2021-09-12T08:37:50Z</time>
      </trkpt>
      <trkpt lat="44.1601" lon="5.33955">
        <ele>1453.4</ele>
        <time>2021-09-12T08:37:52Z</time>
      </trkpt>
      <trkpt lat="44.16012" lon="5.3396">
        <ele>1452.2</ele>
        <time>2021-09-12T08:37:53Z</time>
      </trkpt>
      <trkpt lat="44.16012" lon="5.33964">
        <ele>1451.4</ele>
        <time>2021-09-12T08:37:54Z</time>
      </trkpt>
      <trkpt lat="44.16012" lon="5.33968">
        <ele>1450.6</ele>
        <time>2021-09-12T08:37:55Z</time>
      </trkpt>
      <trkpt lat="44.1601" lon="5.33971">
        <ele>1449.6</ele>
        <time>2021-09-12T08:37:57Z</time>
      </trkpt>
      <trkpt lat="44.16015" lon="5.33978">
        <ele>1449</ele>
        <time>2021-09-12T08:39:27Z</time>
      </trkpt>
      <trkpt lat="44.16015" lon="5.33978">
        <ele>1449</ele>
        <time>2021-09-12T08:40:03Z</time>
      </trkpt>
      <trkpt lat="44.16016" lon="5.33977">
        <ele>1449</ele>
        <time>2021-09-12T08:40:47Z</time>
      </trkpt>
      <trkpt lat="44.16015" lon="5.33979">
        <ele>1449</ele>
        <time>2021-09-12T08:41:12Z</time>
      </trkpt>
      <trkpt lat="44.16017" lon="5.33989">
        <ele>1447.6</ele>
        <time>2021-09-12T08:41:15Z</time>
      </trkpt>
      <trkpt lat="44.16023" lon="5.33996">
        <ele>1446.6</ele>
        <time>2021-09-12T08:41:17Z</time>
      </trkpt>
      <trkpt lat="44.16027" lon="5.33999">
        <ele>1445.4</ele>
        <time>2021-09-12T08:41:18Z</time>
      </trkpt>
      <trkpt lat="44.16067" lon="5.34024">
        <ele>1444.2</ele>
        <time>2021-09-12T08:41:34Z</time>
      </trkpt>
      <trkpt lat="44.1607" lon="5.34029">
        <ele>1443.2</ele>
        <time>2021-09-12T08:41:35Z</time>
      </trkpt>
      <trkpt lat="44.16073" lon="5.34035">
        <ele>1441.8</ele>
        <time>2021-09-12T08:41:36Z</time>
      </trkpt>
      <trkpt lat="44.16077" lon="5.34042">
        <ele>1440.4</ele>
        <time>2021-09-12T08:41:37Z</time>
      </trkpt>
      <trkpt lat="44.16083" lon="5.3405">
        <ele>1439.2</ele>
        <time>2021-09-12T08:41:38Z</time>
      </trkpt>
      <trkpt lat="44.16092" lon="5.34065">
        <ele>1437.8</ele>
        <time>2021-09-12T08:41:40Z</time>
      </trkpt>
      <trkpt lat="44.16098" lon="5.34076">
        <ele>1437.2</ele>
        <time>2021-09-12T08:41:42Z</time>
      </trkpt>
      <trkpt lat="44.16089" lon="5.34103">
        <ele>1436.2</ele>
        <time>2021-09-12T08:41:50Z</time>
      </trkpt>
      <trkpt lat="44.16084" lon="5.34111">
        <ele>1434.6</ele>
        <time>2021-09-12T08:41:52Z</time>
      </trkpt>
      <trkpt lat="44.16081" lon="5.34121">
        <ele>1433.2</ele>
        <time>2021-09-12T08:41:54Z</time>
      </trkpt>
      <trkpt lat="44.16079" lon="5.3413">
        <ele>1431.8</ele>
        <time>2021-09-12T08:41:56Z</time>
      </trkpt>
      <trkpt lat="44.1608" lon="5.34134">
        <ele>1430.6</ele>
        <time>2021-09-12T08:41:57Z</time>
      </trkpt>
      <trkpt lat="44.1608" lon="5.34137">
        <ele>1429.6</ele>
        <time>2021-09-12T08:41:58Z</time>
      </trkpt>
      <trkpt lat="44.1608" lon="5.34141">
        <ele>1427.8</ele>
        <time>2021-09-12T08:42:00Z</time>
      </trkpt>
      <trkpt lat="44.1608" lon="5.34144">
        <ele>1426.6</ele>
        <time>2021-09-12T08:42:02Z</time>
      </trkpt>
      <trkpt lat="44.16078" lon="5.34147">
        <ele>1425.2</ele>
        <time>2021-09-12T08:42:04Z</time>
      </trkpt>
      <trkpt lat="44.16078" lon="5.34152">
        <ele>1423.8</ele>
        <time>2021-09-12T08:42:06Z</time>
      </trkpt>
      <trkpt lat="44.16076" lon="5.34154">
        <ele>1423.2</ele>
        <time>2021-09-12T08:42:07Z</time>
      </trkpt>
      <trkpt lat="44.16075" lon="5.34157">
        <ele>1422.4</ele>
        <time>2021-09-12T08:42:08Z</time>
      </trkpt>
      <trkpt lat="44.16071" lon="5.34164">
        <ele>1420.8</ele>
        <time>2021-09-12T08:42:10Z</time>
      </trkpt>
      <trkpt lat="44.16066" lon="5.34169">
        <ele>1419</ele>
        <time>2021-09-12T08:42:12Z</time>
      </trkpt>
      <trkpt lat="44.1606" lon="5.34174">
        <ele>1417.6</ele>
        <time>2021-09-12T08:42:14Z</time>
      </trkpt>
      <trkpt lat="44.16056" lon="5.34178">
        <ele>1416.4</ele>
        <time>2021-09-12T08:42:16Z</time>
      </trkpt>
      <trkpt lat="44.16054" lon="5.34182">
        <ele>1415.2</ele>
        <time>2021-09-12T08:42:18Z</time>
      </trkpt>
      <trkpt lat="44.16051" lon="5.34187">
        <ele>1414.2</ele>
        <time>2021-09-12T08:42:20Z</time>
      </trkpt>
      <trkpt lat="44.16049" lon="5.34192">
        <ele>1412.6</ele>
        <time>2021-09-12T08:42:22Z</time>
      </trkpt>
      <trkpt lat="44.16047" lon="5.34198">
        <ele>1410.8</ele>
        <time>2021-09-12T08:42:24Z</time>
      </trkpt>
      <trkpt lat="44.16047" lon="5.34205">
        <ele>1409.4</ele>
        <time>2021-09-12T08:42:26Z</time>
      </trkpt>
      <trkpt lat="44.16047" lon="5.34211">
        <ele>1408</ele>
        <time>2021-09-12T08:42:28Z</time>
      </trkpt>
      <trkpt lat="44.16047" lon="5.34217">
        <ele>1406.2</ele>
        <time>2021-09-12T08:42:30Z</time>
      </trkpt>
      <trkpt lat="44.16047" lon="5.34219">
        <ele>1405.6</ele>
        <time>2021-09-12T08:42:31Z</time>
      </trkpt>
      <trkpt lat="44.16046" lon="5.34221">
        <ele>1404.8</ele>
        <time>2021-09-12T08:42:32Z</time>
      </trkpt>
      <trkpt lat="44.16043" lon="5.34226">
        <ele>1403.8</ele>
        <time>2021-09-12T08:42:34Z</time>
      </trkpt>
      <trkpt lat="44.16043" lon="5.34229">
        <ele>1403.6</ele>
        <time>2021-09-12T08:42:35Z</time>
      </trkpt>
      <trkpt lat="44.16043" lon="5.34232">
        <ele>1402.8</ele>
        <time>2021-09-12T08:42:36Z</time>
      </trkpt>
      <trkpt lat="44.16044" lon="5.34239">
        <ele>1400.8</ele>
        <time>2021-09-12T08:42:38Z</time>
      </trkpt>
      <trkpt lat="44.16044" lon="5.34246">
        <ele>1399</ele>
        <time>2021-09-12T08:42:40Z</time>
      </trkpt>
      <trkpt lat="44.16043" lon="5.34252">
        <ele>1397.6</ele>
        <time>2021-09-12T08:42:42Z</time>
      </trkpt>
      <trkpt lat="44.16043" lon="5.34261">
        <ele>1395.8</ele>
        <time>2021-09-12T08:42:44Z</time>
      </trkpt>
      <trkpt lat="44.16042" lon="5.34265">
        <ele>1394.6</ele>
        <time>2021-09-12T08:42:45Z</time>
      </trkpt>
      <trkpt lat="44.16042" lon="5.34268">
        <ele>1393.6</ele>
        <time>2021-09-12T08:42:46Z</time>
      </trkpt>
      <trkpt lat="44.16041" lon="5.34275">
        <ele>1392</ele>
        <time>2021-09-12T08:42:48Z</time>
      </trkpt>
      <trkpt lat="44.16041" lon="5.34282">
        <ele>1390.8</ele>
        <time>2021-09-12T08:42:50Z</time>
      </trkpt>
      <trkpt lat="44.1604" lon="5.34284">
        <ele>1390.4</ele>
        <time>2021-09-12T08:42:51Z</time>
      </trkpt>
      <trkpt lat="44.16039" lon="5.34287">
        <ele>1389.6</ele>
        <time>2021-09-12T08:42:52Z</time>
      </trkpt>
      <trkpt lat="44.16039" lon="5.34293">
        <ele>1388.2</ele>
        <time>2021-09-12T08:42:54Z</time>
      </trkpt>
      <trkpt lat="44.16041" lon="5.34298">
        <ele>1386.8</ele>
        <time>2021-09-12T08:42:56Z</time>
      </trkpt>
      <trkpt lat="44.16043" lon="5.34302">
        <ele>1385.2</ele>
        <time>2021-09-12T08:42:58Z</time>
      </trkpt>
      <trkpt lat="44.16044" lon="5.34309">
        <ele>1383.8</ele>
        <time>2021-09-12T08:43:00Z</time>
      </trkpt>
      <trkpt lat="44.16046" lon="5.34314">
        <ele>1382</ele>
        <time>2021-09-12T08:43:02Z</time>
      </trkpt>
      <trkpt lat="44.16046" lon="5.3432">
        <ele>1380.4</ele>
        <time>2021-09-12T08:43:04Z</time>
      </trkpt>
      <trkpt lat="44.16046" lon="5.34325">
        <ele>1378.6</ele>
        <time>2021-09-12T08:43:06Z</time>
      </trkpt>
      <trkpt lat="44.16045" lon="5.34328">
        <ele>1377.8</ele>
        <time>2021-09-12T08:43:07Z</time>
      </trkpt>
      <trkpt lat="44.16044" lon="5.3433">
        <ele>1377</ele>
        <time>2021-09-12T08:43:08Z</time>
      </trkpt>
      <trkpt lat="44.16044" lon="5.34335">
        <ele>1375.2</ele>
        <time>2021-09-12T08:43:10Z</time>
      </trkpt>
      <trkpt lat="44.16044" lon="5.34338">
        <ele>1373.6</ele>
        <time>2021-09-12T08:43:12Z</time>
      </trkpt>
      <trkpt lat="44.16046" lon="5.34341">
        <ele>1371.8</ele>
        <time>2021-09-12T08:43:14Z</time>
      </trkpt>
      <trkpt lat="44.16048" lon="5.34347">
        <ele>1369.8</ele>
        <time>2021-09-12T08:43:16Z</time>
      </trkpt>
      <trkpt lat="44.16049" lon="5.34352">
        <ele>1368.2</ele>
        <time>2021-09-12T08:43:18Z</time>
      </trkpt>
      <trkpt lat="44.16049" lon="5.34356">
        <ele>1367.2</ele>
        <time>2021-09-12T08:43:20Z</time>
      </trkpt>
      <trkpt lat="44.16051" lon="5.34363">
        <ele>1365.4</ele>
        <time>2021-09-12T08:43:22Z</time>
      </trkpt>
      <trkpt lat="44.16052" lon="5.34365">
        <ele>1364</ele>
        <time>2021-09-12T08:43:23Z</time>
      </trkpt>
      <trkpt lat="44.16052" lon="5.34367">
        <ele>1362.6</ele>
        <time>2021-09-12T08:43:24Z</time>
      </trkpt>
      <trkpt lat="44.16052" lon="5.34371">
        <ele>1361.4</ele>
        <time>2021-09-12T08:43:25Z</time>
      </trkpt>
      <trkpt lat="44.16053" lon="5.34374">
        <ele>1360.4</ele>
        <time>2021-09-12T08:43:26Z</time>
      </trkpt>
      <trkpt lat="44.16053" lon="5.34377">
        <ele>1359.2</ele>
        <time>2021-09-12T08:43:27Z</time>
      </trkpt>
      <trkpt lat="44.16052" lon="5.3438">
        <ele>1358.2</ele>
        <time>2021-09-12T08:43:28Z</time>
      </trkpt>
      <trkpt lat="44.16052" lon="5.34383">
        <ele>1357.2</ele>
        <time>2021-09-12T08:43:29Z</time>
      </trkpt>
      <trkpt lat="44.16053" lon="5.34386">
        <ele>1356.4</ele>
        <time>2021-09-12T08:43:30Z</time>
      </trkpt>
      <trkpt lat="44.16055" lon="5.34389">
        <ele>1355.4</ele>
        <time>2021-09-12T08:43:31Z</time>
      </trkpt>
      <trkpt lat="44.16056" lon="5.34394">
        <ele>1354.2</ele>
        <time>2021-09-12T08:43:32Z</time>
      </trkpt>
      <trkpt lat="44.16059" lon="5.34399">
        <ele>1353.2</ele>
        <time>2021-09-12T08:43:33Z</time>
      </trkpt>
      <trkpt lat="44.16064" lon="5.34408">
        <ele>1351.2</ele>
        <time>2021-09-12T08:43:35Z</time>
      </trkpt>
      <trkpt lat="44.16064" lon="5.34416">
        <ele>1349.6</ele>
        <time>2021-09-12T08:43:37Z</time>
      </trkpt>
      <trkpt lat="44.16062" lon="5.34422">
        <ele>1348.2</ele>
        <time>2021-09-12T08:43:40Z</time>
      </trkpt>
      <trkpt lat="44.16061" lon="5.34436">
        <ele>1347.8</ele>
        <time>2021-09-12T08:45:27Z</time>
      </trkpt>
      <trkpt lat="44.16061" lon="5.34436">
        <ele>1347.8</ele>
        <time>2021-09-12T08:46:23Z</time>
      </trkpt>
      <trkpt lat="44.1606" lon="5.34439">
        <ele>1347.8</ele>
        <time>2021-09-12T08:47:28Z</time>
      </trkpt>
      <trkpt lat="44.16058" lon="5.34439">
        <ele>1347.4</ele>
        <time>2021-09-12T08:47:29Z</time>
      </trkpt>
      <trkpt lat="44.16058" lon="5.34441">
        <ele>1347</ele>
        <time>2021-09-12T08:47:30Z</time>
      </trkpt>
      <trkpt lat="44.16065" lon="5.34447">
        <ele>1345.4</ele>
        <time>2021-09-12T08:47:34Z</time>
      </trkpt>
      <trkpt lat="44.16102" lon="5.34465">
        <ele>1344.6</ele>
        <time>2021-09-12T08:47:47Z</time>
      </trkpt>
      <trkpt lat="44.16103" lon="5.34469">
        <ele>1344</ele>
        <time>2021-09-12T08:47:48Z</time>
      </trkpt>
      <trkpt lat="44.16103" lon="5.34478">
        <ele>1343</ele>
        <time>2021-09-12T08:47:50Z</time>
      </trkpt>
      <trkpt lat="44.16104" lon="5.34488">
        <ele>1341.2</ele>
        <time>2021-09-12T08:47:53Z</time>
      </trkpt>
      <trkpt lat="44.16103" lon="5.3449">
        <ele>1340</ele>
        <time>2021-09-12T08:47:54Z</time>
      </trkpt>
      <trkpt lat="44.16101" lon="5.34493">
        <ele>1339</ele>
        <time>2021-09-12T08:47:55Z</time>
      </trkpt>
      <trkpt lat="44.16097" lon="5.34499">
        <ele>1337.4</ele>
        <time>2021-09-12T08:47:57Z</time>
      </trkpt>
      <trkpt lat="44.16095" lon="5.34504">
        <ele>1335.8</ele>
        <time>2021-09-12T08:47:59Z</time>
      </trkpt>
      <trkpt lat="44.16096" lon="5.34509">
        <ele>1334.4</ele>
        <time>2021-09-12T08:48:01Z</time>
      </trkpt>
      <trkpt lat="44.161" lon="5.34518">
        <ele>1333</ele>
        <time>2021-09-12T08:48:04Z</time>
      </trkpt>
      <trkpt lat="44.161" lon="5.34527">
        <ele>1332</ele>
        <time>2021-09-12T08:48:07Z</time>
      </trkpt>
      <trkpt lat="44.16099" lon="5.34533">
        <ele>1331</ele>
        <time>2021-09-12T08:48:09Z</time>
      </trkpt>
      <trkpt lat="44.161" lon="5.34539">
        <ele>1329.6</ele>
        <time>2021-09-12T08:48:11Z</time>
      </trkpt>
      <trkpt lat="44.16101" lon="5.34544">
        <ele>1329.2</ele>
        <time>2021-09-12T08:48:12Z</time>
      </trkpt>
      <trkpt lat="44.161" lon="5.34554">
        <ele>1328.2</ele>
        <time>2021-09-12T08:48:14Z</time>
      </trkpt>
      <trkpt lat="44.16097" lon="5.34569">
        <ele>1326.4</ele>
        <time>2021-09-12T08:48:17Z</time>
      </trkpt>
      <trkpt lat="44.16097" lon="5.34573">
        <ele>1325.2</ele>
        <time>2021-09-12T08:48:18Z</time>
      </trkpt>
      <trkpt lat="44.16096" lon="5.34578">
        <ele>1324</ele>
        <time>2021-09-12T08:48:19Z</time>
      </trkpt>
      <trkpt lat="44.16096" lon="5.34582">
        <ele>1323</ele>
        <time>2021-09-12T08:48:20Z</time>
      </trkpt>
      <trkpt lat="44.16096" lon="5.34585">
        <ele>1322.2</ele>
        <time>2021-09-12T08:48:21Z</time>
      </trkpt>
      <trkpt lat="44.16096" lon="5.34589">
        <ele>1321.4</ele>
        <time>2021-09-12T08:48:22Z</time>
      </trkpt>
      <trkpt lat="44.16095" lon="5.34592">
        <ele>1320.8</ele>
        <time>2021-09-12T08:48:23Z</time>
      </trkpt>
      <trkpt lat="44.16094" lon="5.34594">
        <ele>1320.2</ele>
        <time>2021-09-12T08:48:24Z</time>
      </trkpt>
      <trkpt lat="44.1609" lon="5.34603">
        <ele>1318.8</ele>
        <time>2021-09-12T08:48:26Z</time>
      </trkpt>
      <trkpt lat="44.16088" lon="5.34611">
        <ele>1317.2</ele>
        <time>2021-09-12T08:48:28Z</time>
      </trkpt>
      <trkpt lat="44.16088" lon="5.3462">
        <ele>1315.4</ele>
        <time>2021-09-12T08:48:30Z</time>
      </trkpt>
      <trkpt lat="44.16087" lon="5.3463">
        <ele>1313.8</ele>
        <time>2021-09-12T08:48:32Z</time>
      </trkpt>
      <trkpt lat="44.16086" lon="5.34635">
        <ele>1312.8</ele>
        <time>2021-09-12T08:48:33Z</time>
      </trkpt>
      <trkpt lat="44.16086" lon="5.34641">
        <ele>1311.6</ele>
        <time>2021-09-12T08:48:34Z</time>
      </trkpt>
      <trkpt lat="44.16085" lon="5.3465">
        <ele>1309.6</ele>
        <time>2021-09-12T08:48:36Z</time>
      </trkpt>
      <trkpt lat="44.16084" lon="5.34654">
        <ele>1308.2</ele>
        <time>2021-09-12T08:48:37Z</time>
      </trkpt>
      <trkpt lat="44.16083" lon="5.34658">
        <ele>1306.8</ele>
        <time>2021-09-12T08:48:38Z</time>
      </trkpt>
      <trkpt lat="44.16082" lon="5.34661">
        <ele>1305.6</ele>
        <time>2021-09-12T08:48:39Z</time>
      </trkpt>
      <trkpt lat="44.16081" lon="5.34663">
        <ele>1304.6</ele>
        <time>2021-09-12T08:48:40Z</time>
      </trkpt>
      <trkpt lat="44.16077" lon="5.34668">
        <ele>1303</ele>
        <time>2021-09-12T08:48:42Z</time>
      </trkpt>
      <trkpt lat="44.16073" lon="5.34674">
        <ele>1301.4</ele>
        <time>2021-09-12T08:48:44Z</time>
      </trkpt>
      <trkpt lat="44.16072" lon="5.34677">
        <ele>1300.2</ele>
        <time>2021-09-12T08:48:45Z</time>
      </trkpt>
      <trkpt lat="44.16071" lon="5.3468">
        <ele>1299</ele>
        <time>2021-09-12T08:48:46Z</time>
      </trkpt>
      <trkpt lat="44.1607" lon="5.34686">
        <ele>1297</ele>
        <time>2021-09-12T08:48:48Z</time>
      </trkpt>
      <trkpt lat="44.16068" lon="5.34692">
        <ele>1295.2</ele>
        <time>2021-09-12T08:48:50Z</time>
      </trkpt>
      <trkpt lat="44.16067" lon="5.34694">
        <ele>1294.6</ele>
        <time>2021-09-12T08:48:51Z</time>
      </trkpt>
      <trkpt lat="44.16066" lon="5.34696">
        <ele>1294.2</ele>
        <time>2021-09-12T08:48:52Z</time>
      </trkpt>
      <trkpt lat="44.16066" lon="5.34702">
        <ele>1293</ele>
        <time>2021-09-12T08:48:54Z</time>
      </trkpt>
      <trkpt lat="44.16066" lon="5.34704">
        <ele>1292.4</ele>
        <time>2021-09-12T08:48:55Z</time>
      </trkpt>
      <trkpt lat="44.16065" lon="5.34706">
        <ele>1292</ele>
        <time>2021-09-12T08:48:56Z</time>
      </trkpt>
      <trkpt lat="44.1606" lon="5.34711">
        <ele>1291</ele>
        <time>2021-09-12T08:48:58Z</time>
      </trkpt>
      <trkpt lat="44.16056" lon="5.34719">
        <ele>1289.4</ele>
        <time>2021-09-12T08:49:00Z</time>
      </trkpt>
      <trkpt lat="44.16053" lon="5.34723">
        <ele>1288.2</ele>
        <time>2021-09-12T08:49:01Z</time>
      </trkpt>
      <trkpt lat="44.16051" lon="5.34729">
        <ele>1286.8</ele>
        <time>2021-09-12T08:49:02Z</time>
      </trkpt>
      <trkpt lat="44.16049" lon="5.34735">
        <ele>1285.2</ele>
        <time>2021-09-12T08:49:03Z</time>
      </trkpt>
      <trkpt lat="44.16047" lon="5.34741">
        <ele>1283.8</ele>
        <time>2021-09-12T08:49:04Z</time>
      </trkpt>
      <trkpt lat="44.16046" lon="5.34747">
        <ele>1282.6</ele>
        <time>2021-09-12T08:49:05Z</time>
      </trkpt>
      <trkpt lat="44.16044" lon="5.34755">
        <ele>1281.2</ele>
        <time>2021-09-12T08:49:06Z</time>
      </trkpt>
      <trkpt lat="44.16043" lon="5.34762">
        <ele>1280</ele>
        <time>2021-09-12T08:49:07Z</time>
      </trkpt>
      <trkpt lat="44.16042" lon="5.3477">
        <ele>1279</ele>
        <time>2021-09-12T08:49:08Z</time>
      </trkpt>
      <trkpt lat="44.16041" lon="5.34777">
        <ele>1277.8</ele>
        <time>2021-09-12T08:49:09Z</time>
      </trkpt>
      <trkpt lat="44.16039" lon="5.34786">
        <ele>1276.4</ele>
        <time>2021-09-12T08:49:10Z</time>
      </trkpt>
      <trkpt lat="44.16037" lon="5.34794">
        <ele>1275</ele>
        <time>2021-09-12T08:49:11Z</time>
      </trkpt>
      <trkpt lat="44.16034" lon="5.34801">
        <ele>1273.8</ele>
        <time>2021-09-12T08:49:12Z</time>
      </trkpt>
      <trkpt lat="44.16028" lon="5.34812">
        <ele>1272</ele>
        <time>2021-09-12T08:49:14Z</time>
      </trkpt>
      <trkpt lat="44.16021" lon="5.3482">
        <ele>1271.2</ele>
        <time>2021-09-12T08:49:18Z</time>
      </trkpt>
      <trkpt lat="44.1602" lon="5.34822">
        <ele>1271</ele>
        <time>2021-09-12T08:49:31Z</time>
      </trkpt>
      <trkpt lat="44.16019" lon="5.34822">
        <ele>1271.2</ele>
        <time>2021-09-12T08:50:40Z</time>
      </trkpt>
      <trkpt lat="44.16019" lon="5.34822">
        <ele>1271.2</ele>
        <time>2021-09-12T08:51:12Z</time>
      </trkpt>
      <trkpt lat="44.1602" lon="5.34822">
        <ele>1271.2</ele>
        <time>2021-09-12T08:51:50Z</time>
      </trkpt>
      <trkpt lat="44.16019" lon="5.34819">
        <ele>1271.2</ele>
        <time>2021-09-12T08:53:28Z</time>
      </trkpt>
      <trkpt lat="44.16018" lon="5.34818">
        <ele>1271.2</ele>
        <time>2021-09-12T08:55:16Z</time>
      </trkpt>
      <trkpt lat="44.16017" lon="5.34823">
        <ele>1270.8</ele>
        <time>2021-09-12T08:55:19Z</time>
      </trkpt>
      <trkpt lat="44.16013" lon="5.34823">
        <ele>1270.4</ele>
        <time>2021-09-12T08:55:23Z</time>
      </trkpt>
      <trkpt lat="44.16008" lon="5.34818">
        <ele>1270.6</ele>
        <time>2021-09-12T08:55:37Z</time>
      </trkpt>
      <trkpt lat="44.15999" lon="5.34811">
        <ele>1270</ele>
        <time>2021-09-12T08:55:40Z</time>
      </trkpt>
      <trkpt lat="44.15987" lon="5.34799">
        <ele>1268.8</ele>
        <time>2021-09-12T08:55:44Z</time>
      </trkpt>
      <trkpt lat="44.15984" lon="5.34798">
        <ele>1267.6</ele>
        <time>2021-09-12T08:55:47Z</time>
      </trkpt>
      <trkpt lat="44.15984" lon="5.34798">
        <ele>1267.2</ele>
        <time>2021-09-12T08:55:48Z</time>
      </trkpt>
      <trkpt lat="44.15981" lon="5.34799">
        <ele>1266.8</ele>
        <time>2021-09-12T08:55:50Z</time>
      </trkpt>
      <trkpt lat="44.1598" lon="5.34799">
        <ele>1266.6</ele>
        <time>2021-09-12T08:55:51Z</time>
      </trkpt>
      <trkpt lat="44.15978" lon="5.34798">
        <ele>1266.4</ele>
        <time>2021-09-12T08:55:55Z</time>
      </trkpt>
      <trkpt lat="44.15972" lon="5.34793">
        <ele>1266.2</ele>
        <time>2021-09-12T08:55:59Z</time>
      </trkpt>
      <trkpt lat="44.15968" lon="5.3479">
        <ele>1265.4</ele>
        <time>2021-09-12T08:56:01Z</time>
      </trkpt>
      <trkpt lat="44.15966" lon="5.3479">
        <ele>1264.4</ele>
        <time>2021-09-12T08:56:04Z</time>
      </trkpt>
      <trkpt lat="44.15962" lon="5.34793">
        <ele>1264</ele>
        <time>2021-09-12T08:56:17Z</time>
      </trkpt>
      <trkpt lat="44.15954" lon="5.34796">
        <ele>1263.4</ele>
        <time>2021-09-12T08:56:21Z</time>
      </trkpt>
      <trkpt lat="44.15952" lon="5.34796">
        <ele>1263.2</ele>
        <time>2021-09-12T08:56:22Z</time>
      </trkpt>
      <trkpt lat="44.15944" lon="5.34796">
        <ele>1261.6</ele>
        <time>2021-09-12T08:56:25Z</time>
      </trkpt>
      <trkpt lat="44.15939" lon="5.34795">
        <ele>1259.6</ele>
        <time>2021-09-12T08:56:27Z</time>
      </trkpt>
      <trkpt lat="44.15936" lon="5.34794">
        <ele>1258.4</ele>
        <time>2021-09-12T08:56:28Z</time>
      </trkpt>
      <trkpt lat="44.15933" lon="5.34794">
        <ele>1257.2</ele>
        <time>2021-09-12T08:56:29Z</time>
      </trkpt>
      <trkpt lat="44.15927" lon="5.34791">
        <ele>1256</ele>
        <time>2021-09-12T08:56:31Z</time>
      </trkpt>
      <trkpt lat="44.15922" lon="5.34788">
        <ele>1253.8</ele>
        <time>2021-09-12T08:56:33Z</time>
      </trkpt>
      <trkpt lat="44.15921" lon="5.34785">
        <ele>1252</ele>
        <time>2021-09-12T08:56:34Z</time>
      </trkpt>
      <trkpt lat="44.15919" lon="5.34784">
        <ele>1250.4</ele>
        <time>2021-09-12T08:56:35Z</time>
      </trkpt>
      <trkpt lat="44.15914" lon="5.34781">
        <ele>1249.2</ele>
        <time>2021-09-12T08:56:37Z</time>
      </trkpt>
      <trkpt lat="44.15906" lon="5.34776">
        <ele>1247.4</ele>
        <time>2021-09-12T08:56:40Z</time>
      </trkpt>
      <trkpt lat="44.15901" lon="5.34774">
        <ele>1245.6</ele>
        <time>2021-09-12T08:56:42Z</time>
      </trkpt>
      <trkpt lat="44.15898" lon="5.34775">
        <ele>1244.8</ele>
        <time>2021-09-12T08:56:43Z</time>
      </trkpt>
      <trkpt lat="44.15895" lon="5.34776">
        <ele>1244.2</ele>
        <time>2021-09-12T08:56:44Z</time>
      </trkpt>
      <trkpt lat="44.15889" lon="5.34774">
        <ele>1243.2</ele>
        <time>2021-09-12T08:56:46Z</time>
      </trkpt>
      <trkpt lat="44.15886" lon="5.34772">
        <ele>1242.8</ele>
        <time>2021-09-12T08:56:47Z</time>
      </trkpt>
      <trkpt lat="44.15876" lon="5.34771">
        <ele>1241.6</ele>
        <time>2021-09-12T08:56:50Z</time>
      </trkpt>
      <trkpt lat="44.15869" lon="5.34771">
        <ele>1239.8</ele>
        <time>2021-09-12T08:56:52Z</time>
      </trkpt>
      <trkpt lat="44.15865" lon="5.34771">
        <ele>1237.8</ele>
        <time>2021-09-12T08:56:54Z</time>
      </trkpt>
      <trkpt lat="44.15864" lon="5.34771">
        <ele>1236.8</ele>
        <time>2021-09-12T08:56:56Z</time>
      </trkpt>
      <trkpt lat="44.15861" lon="5.3477">
        <ele>1236</ele>
        <time>2021-09-12T08:57:09Z</time>
      </trkpt>
      <trkpt lat="44.15857" lon="5.3477">
        <ele>1235.8</ele>
        <time>2021-09-12T08:57:11Z</time>
      </trkpt>
      <trkpt lat="44.15854" lon="5.34771">
        <ele>1235</ele>
        <time>2021-09-12T08:57:13Z</time>
      </trkpt>
      <trkpt lat="44.15853" lon="5.34771">
        <ele>1234.4</ele>
        <time>2021-09-12T08:57:14Z</time>
      </trkpt>
      <trkpt lat="44.15849" lon="5.34773">
        <ele>1233.2</ele>
        <time>2021-09-12T08:57:16Z</time>
      </trkpt>
      <trkpt lat="44.15845" lon="5.34771">
        <ele>1231.8</ele>
        <time>2021-09-12T08:57:18Z</time>
      </trkpt>
      <trkpt lat="44.15836" lon="5.34772">
        <ele>1230.4</ele>
        <time>2021-09-12T08:57:21Z</time>
      </trkpt>
      <trkpt lat="44.15834" lon="5.34772">
        <ele>1229.8</ele>
        <time>2021-09-12T08:57:22Z</time>
      </trkpt>
      <trkpt lat="44.15833" lon="5.34774">
        <ele>1229.2</ele>
        <time>2021-09-12T08:57:23Z</time>
      </trkpt>
      <trkpt lat="44.15832" lon="5.34776">
        <ele>1228</ele>
        <time>2021-09-12T08:57:26Z</time>
      </trkpt>
      <trkpt lat="44.15829" lon="5.34778">
        <ele>1227.8</ele>
        <time>2021-09-12T08:57:31Z</time>
      </trkpt>
      <trkpt lat="44.15832" lon="5.34779">
        <ele>1229.2</ele>
        <time>2021-09-12T08:57:39Z</time>
      </trkpt>
      <trkpt lat="44.15837" lon="5.3477">
        <ele>1230.4</ele>
        <time>2021-09-12T08:58:48Z</time>
      </trkpt>
      <trkpt lat="44.15832" lon="5.34774">
        <ele>1228</ele>
        <time>2021-09-12T09:00:56Z</time>
      </trkpt>
      <trkpt lat="44.15831" lon="5.34774">
        <ele>1226.8</ele>
        <time>2021-09-12T09:01:01Z</time>
      </trkpt>
      <trkpt lat="44.15827" lon="5.34775">
        <ele>1225.8</ele>
        <time>2021-09-12T09:01:08Z</time>
      </trkpt>
      <trkpt lat="44.15824" lon="5.34774">
        <ele>1225.2</ele>
        <time>2021-09-12T09:01:11Z</time>
      </trkpt>
      <trkpt lat="44.15821" lon="5.34773">
        <ele>1224.6</ele>
        <time>2021-09-12T09:01:13Z</time>
      </trkpt>
      <trkpt lat="44.15818" lon="5.34772">
        <ele>1223.8</ele>
        <time>2021-09-12T09:01:14Z</time>
      </trkpt>
      <trkpt lat="44.15816" lon="5.34772">
        <ele>1223</ele>
        <time>2021-09-12T09:01:15Z</time>
      </trkpt>
      <trkpt lat="44.15813" lon="5.34771">
        <ele>1221.2</ele>
        <time>2021-09-12T09:01:17Z</time>
      </trkpt>
      <trkpt lat="44.15809" lon="5.34772">
        <ele>1219.8</ele>
        <time>2021-09-12T09:01:19Z</time>
      </trkpt>
      <trkpt lat="44.15808" lon="5.34772">
        <ele>1219.2</ele>
        <time>2021-09-12T09:01:20Z</time>
      </trkpt>
      <trkpt lat="44.15807" lon="5.34772">
        <ele>1218.4</ele>
        <time>2021-09-12T09:01:21Z</time>
      </trkpt>
      <trkpt lat="44.15806" lon="5.34772">
        <ele>1217.2</ele>
        <time>2021-09-12T09:01:23Z</time>
      </trkpt>
      <trkpt lat="44.15804" lon="5.34774">
        <ele>1216.2</ele>
        <time>2021-09-12T09:01:28Z</time>
      </trkpt>
      <trkpt lat="44.15802" lon="5.34774">
        <ele>1216</ele>
        <time>2021-09-12T09:01:29Z</time>
      </trkpt>
      <trkpt lat="44.15797" lon="5.34775">
        <ele>1214.8</ele>
        <time>2021-09-12T09:01:32Z</time>
      </trkpt>
      <trkpt lat="44.15793" lon="5.34776">
        <ele>1214.2</ele>
        <time>2021-09-12T09:01:34Z</time>
      </trkpt>
      <trkpt lat="44.15792" lon="5.34776">
        <ele>1213.8</ele>
        <time>2021-09-12T09:01:35Z</time>
      </trkpt>
      <trkpt lat="44.15791" lon="5.34776">
        <ele>1213.2</ele>
        <time>2021-09-12T09:01:36Z</time>
      </trkpt>
      <trkpt lat="44.15789" lon="5.34777">
        <ele>1212.6</ele>
        <time>2021-09-12T09:01:37Z</time>
      </trkpt>
      <trkpt lat="44.15788" lon="5.34781">
        <ele>1211.6</ele>
        <time>2021-09-12T09:01:39Z</time>
      </trkpt>
      <trkpt lat="44.15786" lon="5.34785">
        <ele>1210.6</ele>
        <time>2021-09-12T09:01:51Z</time>
      </trkpt>
      <trkpt lat="44.15781" lon="5.34781">
        <ele>1210.8</ele>
        <time>2021-09-12T09:02:26Z</time>
      </trkpt>
      <trkpt lat="44.15778" lon="5.34782">
        <ele>1210.8</ele>
        <time>2021-09-12T09:02:28Z</time>
      </trkpt>
      <trkpt lat="44.15753" lon="5.34796">
        <ele>1209.6</ele>
        <time>2021-09-12T09:02:35Z</time>
      </trkpt>
      <trkpt lat="44.15731" lon="5.34808">
        <ele>1208.8</ele>
        <time>2021-09-12T09:02:40Z</time>
      </trkpt>
      <trkpt lat="44.15712" lon="5.34822">
        <ele>1208.6</ele>
        <time>2021-09-12T09:02:45Z</time>
      </trkpt>
      <trkpt lat="44.15701" lon="5.34833">
        <ele>1208.4</ele>
        <time>2021-09-12T09:02:48Z</time>
      </trkpt>
      <trkpt lat="44.15694" lon="5.34843">
        <ele>1208.4</ele>
        <time>2021-09-12T09:02:50Z</time>
      </trkpt>
      <trkpt lat="44.1569" lon="5.34855">
        <ele>1208.2</ele>
        <time>2021-09-12T09:02:52Z</time>
      </trkpt>
      <trkpt lat="44.15691" lon="5.34867">
        <ele>1208</ele>
        <time>2021-09-12T09:02:54Z</time>
      </trkpt>
      <trkpt lat="44.15698" lon="5.34888">
        <ele>1207.2</ele>
        <time>2021-09-12T09:02:57Z</time>
      </trkpt>
      <trkpt lat="44.15716" lon="5.34924">
        <ele>1206.2</ele>
        <time>2021-09-12T09:03:04Z</time>
      </trkpt>
      <trkpt lat="44.15724" lon="5.3494">
        <ele>1205.8</ele>
        <time>2021-09-12T09:03:07Z</time>
      </trkpt>
      <trkpt lat="44.15725" lon="5.34948">
        <ele>1205.4</ele>
        <time>2021-09-12T09:03:09Z</time>
      </trkpt>
      <trkpt lat="44.1572" lon="5.34949">
        <ele>1205</ele>
        <time>2021-09-12T09:03:11Z</time>
      </trkpt>
      <trkpt lat="44.15717" lon="5.34946">
        <ele>1204</ele>
        <time>2021-09-12T09:03:13Z</time>
      </trkpt>
      <trkpt lat="44.15713" lon="5.34939">
        <ele>1202.6</ele>
        <time>2021-09-12T09:03:15Z</time>
      </trkpt>
      <trkpt lat="44.15707" lon="5.34933">
        <ele>1201.2</ele>
        <time>2021-09-12T09:03:17Z</time>
      </trkpt>
      <trkpt lat="44.15697" lon="5.34921">
        <ele>1200.2</ele>
        <time>2021-09-12T09:03:20Z</time>
      </trkpt>
      <trkpt lat="44.15688" lon="5.34907">
        <ele>1199.6</ele>
        <time>2021-09-12T09:03:23Z</time>
      </trkpt>
      <trkpt lat="44.1567" lon="5.34837">
        <ele>1200.6</ele>
        <time>2021-09-12T09:03:36Z</time>
      </trkpt>
      <trkpt lat="44.15687" lon="5.34817">
        <ele>1200.8</ele>
        <time>2021-09-12T09:03:43Z</time>
      </trkpt>
      <trkpt lat="44.15732" lon="5.34786">
        <ele>1200</ele>
        <time>2021-09-12T09:04:01Z</time>
      </trkpt>
      <trkpt lat="44.15736" lon="5.34781">
        <ele>1199.6</ele>
        <time>2021-09-12T09:04:04Z</time>
      </trkpt>
      <trkpt lat="44.15683" lon="5.34762">
        <ele>1201</ele>
        <time>2021-09-12T09:04:25Z</time>
      </trkpt>
      <trkpt lat="44.15675" lon="5.34757">
        <ele>1201.2</ele>
        <time>2021-09-12T09:04:28Z</time>
      </trkpt>
      <trkpt lat="44.15625" lon="5.34731">
        <ele>1201.6</ele>
        <time>2021-09-12T09:04:50Z</time>
      </trkpt>
      <trkpt lat="44.15581" lon="5.34687">
        <ele>1201.8</ele>
        <time>2021-09-12T09:05:10Z</time>
      </trkpt>
      <trkpt lat="44.1554" lon="5.34643">
        <ele>1201.6</ele>
        <time>2021-09-12T09:05:28Z</time>
      </trkpt>
      <trkpt lat="44.15523" lon="5.34623">
        <ele>1202.2</ele>
        <time>2021-09-12T09:05:34Z</time>
      </trkpt>
      <trkpt lat="44.15499" lon="5.34568">
        <ele>1202</ele>
        <time>2021-09-12T09:05:51Z</time>
      </trkpt>
      <trkpt lat="44.15496" lon="5.34567">
        <ele>1202</ele>
        <time>2021-09-12T09:05:53Z</time>
      </trkpt>
      <trkpt lat="44.15463" lon="5.34628">
        <ele>1202.8</ele>
        <time>2021-09-12T09:06:15Z</time>
      </trkpt>
      <trkpt lat="44.15431" lon="5.34687">
        <ele>1202.4</ele>
        <time>2021-09-12T09:06:32Z</time>
      </trkpt>
      <trkpt lat="44.15384" lon="5.34684">
        <ele>1203</ele>
        <time>2021-09-12T09:07:05Z</time>
      </trkpt>
      <trkpt lat="44.15382" lon="5.34683">
        <ele>1203.2</ele>
        <time>2021-09-12T09:07:10Z</time>
      </trkpt>
      <trkpt lat="44.1538" lon="5.34683">
        <ele>1203.4</ele>
        <time>2021-09-12T09:08:04Z</time>
      </trkpt>
      <trkpt lat="44.15376" lon="5.34683">
        <ele>1203.4</ele>
        <time>2021-09-12T09:08:07Z</time>
      </trkpt>
      <trkpt lat="44.15321" lon="5.34669">
        <ele>1202.8</ele>
        <time>2021-09-12T09:08:25Z</time>
      </trkpt>
      <trkpt lat="44.15265" lon="5.34654">
        <ele>1203.2</ele>
        <time>2021-09-12T09:08:41Z</time>
      </trkpt>
      <trkpt lat="44.1522" lon="5.34611">
        <ele>1203</ele>
        <time>2021-09-12T09:08:57Z</time>
      </trkpt>
      <trkpt lat="44.15176" lon="5.34634">
        <ele>1204</ele>
        <time>2021-09-12T09:09:13Z</time>
      </trkpt>
      <trkpt lat="44.15122" lon="5.34645">
        <ele>1203.4</ele>
        <time>2021-09-12T09:09:27Z</time>
      </trkpt>
      <trkpt lat="44.15067" lon="5.3464">
        <ele>1203.6</ele>
        <time>2021-09-12T09:09:43Z</time>
      </trkpt>
      <trkpt lat="44.15012" lon="5.3463">
        <ele>1204</ele>
        <time>2021-09-12T09:09:59Z</time>
      </trkpt>
      <trkpt lat="44.14975" lon="5.34616">
        <ele>1204.2</ele>
        <time>2021-09-12T09:10:10Z</time>
      </trkpt>
      <trkpt lat="44.14927" lon="5.34616">
        <ele>1204.2</ele>
        <time>2021-09-12T09:10:26Z</time>
      </trkpt>
      <trkpt lat="44.14873" lon="5.34635">
        <ele>1204</ele>
        <time>2021-09-12T09:10:40Z</time>
      </trkpt>
      <trkpt lat="44.14818" lon="5.34643">
        <ele>1203.8</ele>
        <time>2021-09-12T09:10:54Z</time>
      </trkpt>
      <trkpt lat="44.14763" lon="5.34645">
        <ele>1204.2</ele>
        <time>2021-09-12T09:11:09Z</time>
      </trkpt>
      <trkpt lat="44.14707" lon="5.34645">
        <ele>1204.6</ele>
        <time>2021-09-12T09:11:24Z</time>
      </trkpt>
      <trkpt lat="44.14652" lon="5.34643">
        <ele>1204.4</ele>
        <time>2021-09-12T09:11:38Z</time>
      </trkpt>
      <trkpt lat="44.14598" lon="5.34619">
        <ele>1205</ele>
        <time>2021-09-12T09:11:53Z</time>
      </trkpt>
      <trkpt lat="44.14595" lon="5.34617">
        <ele>1205.4</ele>
        <time>2021-09-12T09:11:54Z</time>
      </trkpt>
      <trkpt lat="44.14546" lon="5.34585">
        <ele>1205</ele>
        <time>2021-09-12T09:12:09Z</time>
      </trkpt>
      <trkpt lat="44.14501" lon="5.34609">
        <ele>1204.8</ele>
        <time>2021-09-12T09:12:24Z</time>
      </trkpt>
      <trkpt lat="44.14464" lon="5.34667">
        <ele>1204.8</ele>
        <time>2021-09-12T09:12:38Z</time>
      </trkpt>
      <trkpt lat="44.14422" lon="5.34715">
        <ele>1205.2</ele>
        <time>2021-09-12T09:12:53Z</time>
      </trkpt>
      <trkpt lat="44.14369" lon="5.34741">
        <ele>1205</ele>
        <time>2021-09-12T09:13:08Z</time>
      </trkpt>
      <trkpt lat="44.14314" lon="5.34757">
        <ele>1205.2</ele>
        <time>2021-09-12T09:13:24Z</time>
      </trkpt>
      <trkpt lat="44.14259" lon="5.34763">
        <ele>1205.4</ele>
        <time>2021-09-12T09:13:38Z</time>
      </trkpt>
      <trkpt lat="44.14203" lon="5.34753">
        <ele>1205.6</ele>
        <time>2021-09-12T09:13:53Z</time>
      </trkpt>
      <trkpt lat="44.14152" lon="5.34771">
        <ele>1206</ele>
        <time>2021-09-12T09:14:08Z</time>
      </trkpt>
      <trkpt lat="44.1413" lon="5.34785">
        <ele>1206.4</ele>
        <time>2021-09-12T09:14:15Z</time>
      </trkpt>
      <trkpt lat="44.14076" lon="5.34806">
        <ele>1206</ele>
        <time>2021-09-12T09:14:30Z</time>
      </trkpt>
      <trkpt lat="44.14022" lon="5.34799">
        <ele>1206.2</ele>
        <time>2021-09-12T09:14:46Z</time>
      </trkpt>
      <trkpt lat="44.13974" lon="5.34776">
        <ele>1206.8</ele>
        <time>2021-09-12T09:15:03Z</time>
      </trkpt>
      <trkpt lat="44.13934" lon="5.3483">
        <ele>1206.8</ele>
        <time>2021-09-12T09:15:18Z</time>
      </trkpt>
      <trkpt lat="44.13896" lon="5.34886">
        <ele>1207</ele>
        <time>2021-09-12T09:15:36Z</time>
      </trkpt>
      <trkpt lat="44.13879" lon="5.34905">
        <ele>1207.4</ele>
        <time>2021-09-12T09:15:43Z</time>
      </trkpt>
      <trkpt lat="44.13829" lon="5.34943">
        <ele>1207.6</ele>
        <time>2021-09-12T09:15:59Z</time>
      </trkpt>
      <trkpt lat="44.13778" lon="5.34972">
        <ele>1207.6</ele>
        <time>2021-09-12T09:16:13Z</time>
      </trkpt>
      <trkpt lat="44.13747" lon="5.34985">
        <ele>1207.8</ele>
        <time>2021-09-12T09:16:21Z</time>
      </trkpt>
      <trkpt lat="44.13739" lon="5.34986">
        <ele>1207.6</ele>
        <time>2021-09-12T09:16:23Z</time>
      </trkpt>
      <trkpt lat="44.13684" lon="5.34988">
        <ele>1207.8</ele>
        <time>2021-09-12T09:16:37Z</time>
      </trkpt>
      <trkpt lat="44.13646" lon="5.34964">
        <ele>1208.2</ele>
        <time>2021-09-12T09:16:47Z</time>
      </trkpt>
      <trkpt lat="44.13643" lon="5.3496">
        <ele>1208.6</ele>
        <time>2021-09-12T09:16:48Z</time>
      </trkpt>
      <trkpt lat="44.1361" lon="5.34902">
        <ele>1209.2</ele>
        <time>2021-09-12T09:17:02Z</time>
      </trkpt>
      <trkpt lat="44.13574" lon="5.34847">
        <ele>1209.2</ele>
        <time>2021-09-12T09:17:18Z</time>
      </trkpt>
      <trkpt lat="44.13552" lon="5.34863">
        <ele>1209.6</ele>
        <time>2021-09-12T09:17:25Z</time>
      </trkpt>
      <trkpt lat="44.13517" lon="5.349">
        <ele>1210.8</ele>
        <time>2021-09-12T09:17:37Z</time>
      </trkpt>
      <trkpt lat="44.13472" lon="5.34929">
        <ele>1209.6</ele>
        <time>2021-09-12T09:17:50Z</time>
      </trkpt>
      <trkpt lat="44.13434" lon="5.34928">
        <ele>1210.6</ele>
        <time>2021-09-12T09:18:01Z</time>
      </trkpt>
      <trkpt lat="44.13399" lon="5.34886">
        <ele>1211.6</ele>
        <time>2021-09-12T09:18:16Z</time>
      </trkpt>
      <trkpt lat="44.13407" lon="5.3485">
        <ele>1210.8</ele>
        <time>2021-09-12T09:18:24Z</time>
      </trkpt>
      <trkpt lat="44.1344" lon="5.3479">
        <ele>1210.8</ele>
        <time>2021-09-12T09:18:41Z</time>
      </trkpt>
      <trkpt lat="44.13473" lon="5.34726">
        <ele>1211.4</ele>
        <time>2021-09-12T09:18:59Z</time>
      </trkpt>
      <trkpt lat="44.13485" lon="5.34695">
        <ele>1212</ele>
        <time>2021-09-12T09:22:22Z</time>
      </trkpt>
      <trkpt lat="44.13475" lon="5.34621">
        <ele>1212</ele>
        <time>2021-09-12T09:22:39Z</time>
      </trkpt>
      <trkpt lat="44.13473" lon="5.34617">
        <ele>1212</ele>
        <time>2021-09-12T09:22:41Z</time>
      </trkpt>
      <trkpt lat="44.13469" lon="5.34606">
        <ele>1212</ele>
        <time>2021-09-12T09:22:44Z</time>
      </trkpt>
      <trkpt lat="44.13452" lon="5.34532">
        <ele>1212.4</ele>
        <time>2021-09-12T09:23:01Z</time>
      </trkpt>
      <trkpt lat="44.13461" lon="5.3446">
        <ele>1212.2</ele>
        <time>2021-09-12T09:23:19Z</time>
      </trkpt>
      <trkpt lat="44.13474" lon="5.34442">
        <ele>1212.6</ele>
        <time>2021-09-12T09:23:25Z</time>
      </trkpt>
      <trkpt lat="44.13522" lon="5.34398">
        <ele>1212.6</ele>
        <time>2021-09-12T09:23:43Z</time>
      </trkpt>
      <trkpt lat="44.13573" lon="5.34373">
        <ele>1212.2</ele>
        <time>2021-09-12T09:23:57Z</time>
      </trkpt>
      <trkpt lat="44.1363" lon="5.34357">
        <ele>1212.6</ele>
        <time>2021-09-12T09:24:12Z</time>
      </trkpt>
      <trkpt lat="44.13676" lon="5.3436">
        <ele>1212.8</ele>
        <time>2021-09-12T09:24:24Z</time>
      </trkpt>
      <trkpt lat="44.13685" lon="5.34356">
        <ele>1212.8</ele>
        <time>2021-09-12T09:24:26Z</time>
      </trkpt>
      <trkpt lat="44.1372" lon="5.34302">
        <ele>1213</ele>
        <time>2021-09-12T09:24:40Z</time>
      </trkpt>
      <trkpt lat="44.13774" lon="5.34274">
        <ele>1213</ele>
        <time>2021-09-12T09:24:55Z</time>
      </trkpt>
      <trkpt lat="44.13792" lon="5.34265">
        <ele>1213</ele>
        <time>2021-09-12T09:25:00Z</time>
      </trkpt>
      <trkpt lat="44.13819" lon="5.34248">
        <ele>1213.6</ele>
        <time>2021-09-12T09:25:10Z</time>
      </trkpt>
      <trkpt lat="44.13811" lon="5.34232">
        <ele>1213.8</ele>
        <time>2021-09-12T09:25:15Z</time>
      </trkpt>
      <trkpt lat="44.13759" lon="5.34205">
        <ele>1213</ele>
        <time>2021-09-12T09:25:30Z</time>
      </trkpt>
      <trkpt lat="44.13706" lon="5.34188">
        <ele>1213</ele>
        <time>2021-09-12T09:25:43Z</time>
      </trkpt>
      <trkpt lat="44.13702" lon="5.34186">
        <ele>1213</ele>
        <time>2021-09-12T09:25:44Z</time>
      </trkpt>
      <trkpt lat="44.13657" lon="5.34137">
        <ele>1213.8</ele>
        <time>2021-09-12T09:25:58Z</time>
      </trkpt>
      <trkpt lat="44.13651" lon="5.34128">
        <ele>1213.6</ele>
        <time>2021-09-12T09:26:00Z</time>
      </trkpt>
      <trkpt lat="44.13645" lon="5.34112">
        <ele>1214</ele>
        <time>2021-09-12T09:26:09Z</time>
      </trkpt>
      <trkpt lat="44.13649" lon="5.3412">
        <ele>1214.6</ele>
        <time>2021-09-12T09:26:27Z</time>
      </trkpt>
      <trkpt lat="44.13648" lon="5.34121">
        <ele>1214.4</ele>
        <time>2021-09-12T09:26:29Z</time>
      </trkpt>
      <trkpt lat="44.13646" lon="5.34116">
        <ele>1214.4</ele>
        <time>2021-09-12T09:26:32Z</time>
      </trkpt>
      <trkpt lat="44.13642" lon="5.34108">
        <ele>1214.2</ele>
        <time>2021-09-12T09:26:36Z</time>
      </trkpt>
      <trkpt lat="44.13622" lon="5.34036">
        <ele>1213.8</ele>
        <time>2021-09-12T09:26:52Z</time>
      </trkpt>
      <trkpt lat="44.1362" lon="5.3396">
        <ele>1214.6</ele>
        <time>2021-09-12T09:27:08Z</time>
      </trkpt>
      <trkpt lat="44.13624" lon="5.33887">
        <ele>1213.8</ele>
        <time>2021-09-12T09:27:23Z</time>
      </trkpt>
      <trkpt lat="44.13677" lon="5.33889">
        <ele>1214.2</ele>
        <time>2021-09-12T09:27:38Z</time>
      </trkpt>
      <trkpt lat="44.13713" lon="5.33893">
        <ele>1212.8</ele>
        <time>2021-09-12T09:27:46Z</time>
      </trkpt>
      <trkpt lat="44.13742" lon="5.33891">
        <ele>1211.6</ele>
        <time>2021-09-12T09:27:53Z</time>
      </trkpt>
      <trkpt lat="44.13749" lon="5.33888">
        <ele>1211</ele>
        <time>2021-09-12T09:27:55Z</time>
      </trkpt>
      <trkpt lat="44.13755" lon="5.33881">
        <ele>1210.6</ele>
        <time>2021-09-12T09:27:57Z</time>
      </trkpt>
      <trkpt lat="44.13758" lon="5.33877">
        <ele>1210.4</ele>
        <time>2021-09-12T09:27:58Z</time>
      </trkpt>
      <trkpt lat="44.13761" lon="5.33871">
        <ele>1210.2</ele>
        <time>2021-09-12T09:27:59Z</time>
      </trkpt>
      <trkpt lat="44.13763" lon="5.33859">
        <ele>1209.6</ele>
        <time>2021-09-12T09:28:01Z</time>
      </trkpt>
      <trkpt lat="44.13767" lon="5.33846">
        <ele>1209.4</ele>
        <time>2021-09-12T09:28:03Z</time>
      </trkpt>
      <trkpt lat="44.13788" lon="5.33797">
        <ele>1208</ele>
        <time>2021-09-12T09:28:10Z</time>
      </trkpt>
      <trkpt lat="44.13789" lon="5.33782">
        <ele>1207.4</ele>
        <time>2021-09-12T09:28:12Z</time>
      </trkpt>
      <trkpt lat="44.13785" lon="5.33772">
        <ele>1206.8</ele>
        <time>2021-09-12T09:28:14Z</time>
      </trkpt>
      <trkpt lat="44.13779" lon="5.33761">
        <ele>1206</ele>
        <time>2021-09-12T09:28:16Z</time>
      </trkpt>
      <trkpt lat="44.13777" lon="5.33744">
        <ele>1205.4</ele>
        <time>2021-09-12T09:28:18Z</time>
      </trkpt>
      <trkpt lat="44.13775" lon="5.33723">
        <ele>1204.8</ele>
        <time>2021-09-12T09:28:21Z</time>
      </trkpt>
      <trkpt lat="44.13774" lon="5.33685">
        <ele>1204.2</ele>
        <time>2021-09-12T09:28:27Z</time>
      </trkpt>
      <trkpt lat="44.13776" lon="5.33646">
        <ele>1203.2</ele>
        <time>2021-09-12T09:28:32Z</time>
      </trkpt>
      <trkpt lat="44.13779" lon="5.33632">
        <ele>1202.8</ele>
        <time>2021-09-12T09:28:34Z</time>
      </trkpt>
      <trkpt lat="44.13784" lon="5.3362">
        <ele>1201.8</ele>
        <time>2021-09-12T09:28:36Z</time>
      </trkpt>
      <trkpt lat="44.13791" lon="5.33615">
        <ele>1201.2</ele>
        <time>2021-09-12T09:28:38Z</time>
      </trkpt>
      <trkpt lat="44.13801" lon="5.33615">
        <ele>1201</ele>
        <time>2021-09-12T09:28:40Z</time>
      </trkpt>
      <trkpt lat="44.13819" lon="5.3362">
        <ele>1200.6</ele>
        <time>2021-09-12T09:28:44Z</time>
      </trkpt>
      <trkpt lat="44.13827" lon="5.33619">
        <ele>1200.2</ele>
        <time>2021-09-12T09:28:46Z</time>
      </trkpt>
      <trkpt lat="44.13833" lon="5.33611">
        <ele>1199.8</ele>
        <time>2021-09-12T09:28:48Z</time>
      </trkpt>
      <trkpt lat="44.13829" lon="5.33599">
        <ele>1199.2</ele>
        <time>2021-09-12T09:28:50Z</time>
      </trkpt>
      <trkpt lat="44.13826" lon="5.33594">
        <ele>1199</ele>
        <time>2021-09-12T09:28:51Z</time>
      </trkpt>
      <trkpt lat="44.13819" lon="5.33584">
        <ele>1198.4</ele>
        <time>2021-09-12T09:28:53Z</time>
      </trkpt>
      <trkpt lat="44.13809" lon="5.33567">
        <ele>1198.2</ele>
        <time>2021-09-12T09:28:56Z</time>
      </trkpt>
      <trkpt lat="44.13803" lon="5.33557">
        <ele>1197.6</ele>
        <time>2021-09-12T09:28:58Z</time>
      </trkpt>
      <trkpt lat="44.13795" lon="5.33542">
        <ele>1196.8</ele>
        <time>2021-09-12T09:29:01Z</time>
      </trkpt>
      <trkpt lat="44.13786" lon="5.33519">
        <ele>1196</ele>
        <time>2021-09-12T09:29:05Z</time>
      </trkpt>
      <trkpt lat="44.13784" lon="5.33514">
        <ele>1195.8</ele>
        <time>2021-09-12T09:29:06Z</time>
      </trkpt>
      <trkpt lat="44.13784" lon="5.33479">
        <ele>1195.2</ele>
        <time>2021-09-12T09:29:17Z</time>
      </trkpt>
      <trkpt lat="44.13785" lon="5.33476">
        <ele>1195.2</ele>
        <time>2021-09-12T09:29:20Z</time>
      </trkpt>
      <trkpt lat="44.13785" lon="5.33474">
        <ele>1195.2</ele>
        <time>2021-09-12T09:29:29Z</time>
      </trkpt>
      <trkpt lat="44.13787" lon="5.33475">
        <ele>1195.4</ele>
        <time>2021-09-12T09:30:43Z</time>
      </trkpt>
      <trkpt lat="44.13788" lon="5.33469">
        <ele>1194.2</ele>
        <time>2021-09-12T09:30:46Z</time>
      </trkpt>
      <trkpt lat="44.13788" lon="5.3346">
        <ele>1193.2</ele>
        <time>2021-09-12T09:30:48Z</time>
      </trkpt>
      <trkpt lat="44.13788" lon="5.33454">
        <ele>1192.6</ele>
        <time>2021-09-12T09:30:49Z</time>
      </trkpt>
      <trkpt lat="44.13787" lon="5.33378">
        <ele>1192.6</ele>
        <time>2021-09-12T09:31:05Z</time>
      </trkpt>
      <trkpt lat="44.13788" lon="5.33373">
        <ele>1192.2</ele>
        <time>2021-09-12T09:31:06Z</time>
      </trkpt>
      <trkpt lat="44.1379" lon="5.33357">
        <ele>1191.2</ele>
        <time>2021-09-12T09:31:09Z</time>
      </trkpt>
      <trkpt lat="44.13794" lon="5.33341">
        <ele>1190.2</ele>
        <time>2021-09-12T09:31:12Z</time>
      </trkpt>
      <trkpt lat="44.13796" lon="5.33336">
        <ele>1190.2</ele>
        <time>2021-09-12T09:31:13Z</time>
      </trkpt>
      <trkpt lat="44.13799" lon="5.33324">
        <ele>1189.8</ele>
        <time>2021-09-12T09:31:15Z</time>
      </trkpt>
      <trkpt lat="44.13803" lon="5.33305">
        <ele>1188.8</ele>
        <time>2021-09-12T09:31:18Z</time>
      </trkpt>
      <trkpt lat="44.13811" lon="5.33279">
        <ele>1187.8</ele>
        <time>2021-09-12T09:31:22Z</time>
      </trkpt>
      <trkpt lat="44.13813" lon="5.33273">
        <ele>1187.4</ele>
        <time>2021-09-12T09:31:23Z</time>
      </trkpt>
      <trkpt lat="44.13817" lon="5.33262">
        <ele>1186.4</ele>
        <time>2021-09-12T09:31:25Z</time>
      </trkpt>
      <trkpt lat="44.1382" lon="5.33256">
        <ele>1186</ele>
        <time>2021-09-12T09:31:26Z</time>
      </trkpt>
      <trkpt lat="44.13826" lon="5.33245">
        <ele>1185.6</ele>
        <time>2021-09-12T09:31:28Z</time>
      </trkpt>
      <trkpt lat="44.13837" lon="5.33232">
        <ele>1185.2</ele>
        <time>2021-09-12T09:31:31Z</time>
      </trkpt>
      <trkpt lat="44.13841" lon="5.33229">
        <ele>1185.2</ele>
        <time>2021-09-12T09:31:32Z</time>
      </trkpt>
      <trkpt lat="44.13855" lon="5.33225">
        <ele>1185.2</ele>
        <time>2021-09-12T09:31:35Z</time>
      </trkpt>
      <trkpt lat="44.13881" lon="5.33219">
        <ele>1184.8</ele>
        <time>2021-09-12T09:31:42Z</time>
      </trkpt>
      <trkpt lat="44.1388" lon="5.33212">
        <ele>1184.6</ele>
        <time>2021-09-12T09:31:44Z</time>
      </trkpt>
      <trkpt lat="44.13878" lon="5.33208">
        <ele>1184.2</ele>
        <time>2021-09-12T09:31:45Z</time>
      </trkpt>
      <trkpt lat="44.13863" lon="5.33188">
        <ele>1183.2</ele>
        <time>2021-09-12T09:31:53Z</time>
      </trkpt>
      <trkpt lat="44.13863" lon="5.33187">
        <ele>1182.8</ele>
        <time>2021-09-12T09:31:54Z</time>
      </trkpt>
      <trkpt lat="44.13861" lon="5.33183">
        <ele>1182.6</ele>
        <time>2021-09-12T09:31:57Z</time>
      </trkpt>
      <trkpt lat="44.13855" lon="5.33164">
        <ele>1183.6</ele>
        <time>2021-09-12T09:32:22Z</time>
      </trkpt>
      <trkpt lat="44.13853" lon="5.33158">
        <ele>1184</ele>
        <time>2021-09-12T09:32:25Z</time>
      </trkpt>
      <trkpt lat="44.13852" lon="5.3315">
        <ele>1184.2</ele>
        <time>2021-09-12T09:32:30Z</time>
      </trkpt>
      <trkpt lat="44.1385" lon="5.33146">
        <ele>1184.2</ele>
        <time>2021-09-12T09:32:32Z</time>
      </trkpt>
      <trkpt lat="44.13849" lon="5.33143">
        <ele>1184.2</ele>
        <time>2021-09-12T09:32:33Z</time>
      </trkpt>
      <trkpt lat="44.13848" lon="5.33076">
        <ele>1184.8</ele>
        <time>2021-09-12T09:32:59Z</time>
      </trkpt>
      <trkpt lat="44.13851" lon="5.33052">
        <ele>1185.2</ele>
        <time>2021-09-12T09:33:05Z</time>
      </trkpt>
      <trkpt lat="44.13859" lon="5.32993">
        <ele>1186.4</ele>
        <time>2021-09-12T09:33:22Z</time>
      </trkpt>
      <trkpt lat="44.13862" lon="5.32967">
        <ele>1187.4</ele>
        <time>2021-09-12T09:33:31Z</time>
      </trkpt>
      <trkpt lat="44.13862" lon="5.32922">
        <ele>1188.2</ele>
        <time>2021-09-12T09:33:46Z</time>
      </trkpt>
      <trkpt lat="44.13854" lon="5.32848">
        <ele>1188</ele>
        <time>2021-09-12T09:34:11Z</time>
      </trkpt>
      <trkpt lat="44.13853" lon="5.32835">
        <ele>1188.6</ele>
        <time>2021-09-12T09:34:16Z</time>
      </trkpt>
      <trkpt lat="44.1385" lon="5.32824">
        <ele>1189.8</ele>
        <time>2021-09-12T09:34:20Z</time>
      </trkpt>
      <trkpt lat="44.13847" lon="5.32804">
        <ele>1188.8</ele>
        <time>2021-09-12T09:34:27Z</time>
      </trkpt>
      <trkpt lat="44.13841" lon="5.32775">
        <ele>1189.8</ele>
        <time>2021-09-12T09:34:39Z</time>
      </trkpt>
      <trkpt lat="44.13841" lon="5.32769">
        <ele>1190</ele>
        <time>2021-09-12T09:37:13Z</time>
      </trkpt>
      <trkpt lat="44.1384" lon="5.32762">
        <ele>1189.6</ele>
        <time>2021-09-12T09:37:15Z</time>
      </trkpt>
      <trkpt lat="44.13823" lon="5.32688">
        <ele>1189.2</ele>
        <time>2021-09-12T09:37:39Z</time>
      </trkpt>
      <trkpt lat="44.13805" lon="5.32647">
        <ele>1188.6</ele>
        <time>2021-09-12T09:37:53Z</time>
      </trkpt>
      <trkpt lat="44.13784" lon="5.32603">
        <ele>1187.4</ele>
        <time>2021-09-12T09:38:07Z</time>
      </trkpt>
      <trkpt lat="44.13772" lon="5.32566">
        <ele>1187.8</ele>
        <time>2021-09-12T09:38:17Z</time>
      </trkpt>
      <trkpt lat="44.13766" lon="5.32534">
        <ele>1188</ele>
        <time>2021-09-12T09:38:27Z</time>
      </trkpt>
      <trkpt lat="44.13765" lon="5.32501">
        <ele>1187.2</ele>
        <time>2021-09-12T09:38:45Z</time>
      </trkpt>
      <trkpt lat="44.13764" lon="5.32496">
        <ele>1187</ele>
        <time>2021-09-12T09:38:47Z</time>
      </trkpt>
      <trkpt lat="44.13763" lon="5.32489">
        <ele>1186.4</ele>
        <time>2021-09-12T09:38:49Z</time>
      </trkpt>
      <trkpt lat="44.13761" lon="5.3248">
        <ele>1185.4</ele>
        <time>2021-09-12T09:38:51Z</time>
      </trkpt>
      <trkpt lat="44.13757" lon="5.32466">
        <ele>1184</ele>
        <time>2021-09-12T09:38:54Z</time>
      </trkpt>
      <trkpt lat="44.13755" lon="5.32457">
        <ele>1182.8</ele>
        <time>2021-09-12T09:38:56Z</time>
      </trkpt>
      <trkpt lat="44.13754" lon="5.3245">
        <ele>1181.6</ele>
        <time>2021-09-12T09:38:58Z</time>
      </trkpt>
      <trkpt lat="44.13751" lon="5.32438">
        <ele>1180.2</ele>
        <time>2021-09-12T09:39:01Z</time>
      </trkpt>
      <trkpt lat="44.13749" lon="5.32427">
        <ele>1179</ele>
        <time>2021-09-12T09:39:04Z</time>
      </trkpt>
      <trkpt lat="44.13749" lon="5.32402">
        <ele>1177.8</ele>
        <time>2021-09-12T09:39:09Z</time>
      </trkpt>
      <trkpt lat="44.13751" lon="5.32393">
        <ele>1176.2</ele>
        <time>2021-09-12T09:39:11Z</time>
      </trkpt>
      <trkpt lat="44.13752" lon="5.32381">
        <ele>1174.8</ele>
        <time>2021-09-12T09:39:13Z</time>
      </trkpt>
      <trkpt lat="44.13753" lon="5.32355">
        <ele>1173.8</ele>
        <time>2021-09-12T09:39:17Z</time>
      </trkpt>
      <trkpt lat="44.13758" lon="5.32324">
        <ele>1172.6</ele>
        <time>2021-09-12T09:39:21Z</time>
      </trkpt>
      <trkpt lat="44.13757" lon="5.3231">
        <ele>1170.6</ele>
        <time>2021-09-12T09:39:23Z</time>
      </trkpt>
      <trkpt lat="44.13758" lon="5.32294">
        <ele>1169.2</ele>
        <time>2021-09-12T09:39:25Z</time>
      </trkpt>
      <trkpt lat="44.13758" lon="5.32279">
        <ele>1168.4</ele>
        <time>2021-09-12T09:39:27Z</time>
      </trkpt>
      <trkpt lat="44.13757" lon="5.32273">
        <ele>1168</ele>
        <time>2021-09-12T09:39:28Z</time>
      </trkpt>
      <trkpt lat="44.13754" lon="5.32255">
        <ele>1166.6</ele>
        <time>2021-09-12T09:39:31Z</time>
      </trkpt>
      <trkpt lat="44.13749" lon="5.32236">
        <ele>1165.4</ele>
        <time>2021-09-12T09:39:34Z</time>
      </trkpt>
      <trkpt lat="44.13744" lon="5.32226">
        <ele>1164.2</ele>
        <time>2021-09-12T09:39:36Z</time>
      </trkpt>
      <trkpt lat="44.13738" lon="5.32218">
        <ele>1162.4</ele>
        <time>2021-09-12T09:39:38Z</time>
      </trkpt>
      <trkpt lat="44.13734" lon="5.32211">
        <ele>1161</ele>
        <time>2021-09-12T09:39:40Z</time>
      </trkpt>
      <trkpt lat="44.13727" lon="5.32202">
        <ele>1159.6</ele>
        <time>2021-09-12T09:39:43Z</time>
      </trkpt>
      <trkpt lat="44.13724" lon="5.32194">
        <ele>1158.6</ele>
        <time>2021-09-12T09:39:45Z</time>
      </trkpt>
      <trkpt lat="44.13718" lon="5.32185">
        <ele>1157.4</ele>
        <time>2021-09-12T09:39:47Z</time>
      </trkpt>
      <trkpt lat="44.13712" lon="5.32175">
        <ele>1156</ele>
        <time>2021-09-12T09:39:49Z</time>
      </trkpt>
      <trkpt lat="44.1371" lon="5.3217">
        <ele>1155.2</ele>
        <time>2021-09-12T09:39:50Z</time>
      </trkpt>
      <trkpt lat="44.13708" lon="5.32164">
        <ele>1154.4</ele>
        <time>2021-09-12T09:39:51Z</time>
      </trkpt>
      <trkpt lat="44.13705" lon="5.32159">
        <ele>1153.4</ele>
        <time>2021-09-12T09:39:52Z</time>
      </trkpt>
      <trkpt lat="44.13703" lon="5.32153">
        <ele>1152.4</ele>
        <time>2021-09-12T09:39:53Z</time>
      </trkpt>
      <trkpt lat="44.13701" lon="5.32146">
        <ele>1151.2</ele>
        <time>2021-09-12T09:39:54Z</time>
      </trkpt>
      <trkpt lat="44.137" lon="5.3214">
        <ele>1149.6</ele>
        <time>2021-09-12T09:39:55Z</time>
      </trkpt>
      <trkpt lat="44.13699" lon="5.32136">
        <ele>1148.4</ele>
        <time>2021-09-12T09:39:56Z</time>
      </trkpt>
      <trkpt lat="44.13697" lon="5.32128">
        <ele>1147</ele>
        <time>2021-09-12T09:39:58Z</time>
      </trkpt>
      <trkpt lat="44.13695" lon="5.32114">
        <ele>1146</ele>
        <time>2021-09-12T09:40:01Z</time>
      </trkpt>
      <trkpt lat="44.13695" lon="5.32106">
        <ele>1144.4</ele>
        <time>2021-09-12T09:40:03Z</time>
      </trkpt>
      <trkpt lat="44.13695" lon="5.32102">
        <ele>1143.2</ele>
        <time>2021-09-12T09:40:04Z</time>
      </trkpt>
      <trkpt lat="44.13694" lon="5.32097">
        <ele>1142.2</ele>
        <time>2021-09-12T09:40:05Z</time>
      </trkpt>
      <trkpt lat="44.13693" lon="5.3209">
        <ele>1140.8</ele>
        <time>2021-09-12T09:40:07Z</time>
      </trkpt>
      <trkpt lat="44.13693" lon="5.32083">
        <ele>1139.2</ele>
        <time>2021-09-12T09:40:09Z</time>
      </trkpt>
      <trkpt lat="44.13694" lon="5.32077">
        <ele>1137.8</ele>
        <time>2021-09-12T09:40:10Z</time>
      </trkpt>
      <trkpt lat="44.13694" lon="5.32073">
        <ele>1136.4</ele>
        <time>2021-09-12T09:40:11Z</time>
      </trkpt>
      <trkpt lat="44.13693" lon="5.3207">
        <ele>1135</ele>
        <time>2021-09-12T09:40:12Z</time>
      </trkpt>
      <trkpt lat="44.13693" lon="5.32063">
        <ele>1133.8</ele>
        <time>2021-09-12T09:40:14Z</time>
      </trkpt>
      <trkpt lat="44.13692" lon="5.3206">
        <ele>1133.4</ele>
        <time>2021-09-12T09:40:15Z</time>
      </trkpt>
      <trkpt lat="44.13691" lon="5.32052">
        <ele>1132.4</ele>
        <time>2021-09-12T09:40:17Z</time>
      </trkpt>
      <trkpt lat="44.13691" lon="5.32041">
        <ele>1131.4</ele>
        <time>2021-09-12T09:40:19Z</time>
      </trkpt>
      <trkpt lat="44.1369" lon="5.32029">
        <ele>1130.2</ele>
        <time>2021-09-12T09:40:21Z</time>
      </trkpt>
      <trkpt lat="44.13688" lon="5.32021">
        <ele>1129.2</ele>
        <time>2021-09-12T09:40:23Z</time>
      </trkpt>
      <trkpt lat="44.13688" lon="5.32012">
        <ele>1128</ele>
        <time>2021-09-12T09:40:25Z</time>
      </trkpt>
      <trkpt lat="44.13688" lon="5.32002">
        <ele>1126.2</ele>
        <time>2021-09-12T09:40:27Z</time>
      </trkpt>
      <trkpt lat="44.13687" lon="5.3199">
        <ele>1124.2</ele>
        <time>2021-09-12T09:40:29Z</time>
      </trkpt>
      <trkpt lat="44.13687" lon="5.3198">
        <ele>1122.2</ele>
        <time>2021-09-12T09:40:31Z</time>
      </trkpt>
      <trkpt lat="44.13687" lon="5.31969">
        <ele>1121</ele>
        <time>2021-09-12T09:40:33Z</time>
      </trkpt>
      <trkpt lat="44.13687" lon="5.31957">
        <ele>1119.6</ele>
        <time>2021-09-12T09:40:36Z</time>
      </trkpt>
      <trkpt lat="44.13686" lon="5.31948">
        <ele>1118.2</ele>
        <time>2021-09-12T09:40:38Z</time>
      </trkpt>
      <trkpt lat="44.13687" lon="5.31933">
        <ele>1117.2</ele>
        <time>2021-09-12T09:40:40Z</time>
      </trkpt>
      <trkpt lat="44.13688" lon="5.31923">
        <ele>1115.2</ele>
        <time>2021-09-12T09:40:42Z</time>
      </trkpt>
      <trkpt lat="44.1369" lon="5.31919">
        <ele>1114.2</ele>
        <time>2021-09-12T09:40:43Z</time>
      </trkpt>
      <trkpt lat="44.13691" lon="5.31913">
        <ele>1113</ele>
        <time>2021-09-12T09:40:44Z</time>
      </trkpt>
      <trkpt lat="44.13692" lon="5.31907">
        <ele>1112</ele>
        <time>2021-09-12T09:40:45Z</time>
      </trkpt>
      <trkpt lat="44.13692" lon="5.319">
        <ele>1111</ele>
        <time>2021-09-12T09:40:46Z</time>
      </trkpt>
      <trkpt lat="44.13692" lon="5.31882">
        <ele>1109.8</ele>
        <time>2021-09-12T09:40:49Z</time>
      </trkpt>
      <trkpt lat="44.13694" lon="5.31866">
        <ele>1110.4</ele>
        <time>2021-09-12T09:40:54Z</time>
      </trkpt>
      <trkpt lat="44.13693" lon="5.3186">
        <ele>1110.6</ele>
        <time>2021-09-12T09:40:56Z</time>
      </trkpt>
      <trkpt lat="44.13696" lon="5.31859">
        <ele>1111</ele>
        <time>2021-09-12T09:40:59Z</time>
      </trkpt>
      <trkpt lat="44.13696" lon="5.3186">
        <ele>1111</ele>
        <time>2021-09-12T09:41:00Z</time>
      </trkpt>
      <trkpt lat="44.13688" lon="5.31878">
        <ele>1110.4</ele>
        <time>2021-09-12T09:41:08Z</time>
      </trkpt>
      <trkpt lat="44.13689" lon="5.31877">
        <ele>1110.4</ele>
        <time>2021-09-12T09:41:12Z</time>
      </trkpt>
      <trkpt lat="44.1369" lon="5.31871">
        <ele>1110.6</ele>
        <time>2021-09-12T09:41:14Z</time>
      </trkpt>
      <trkpt lat="44.13699" lon="5.31851">
        <ele>1111</ele>
        <time>2021-09-12T09:42:16Z</time>
      </trkpt>
      <trkpt lat="44.137" lon="5.31849">
        <ele>1111</ele>
        <time>2021-09-12T09:42:17Z</time>
      </trkpt>
      <trkpt lat="44.13706" lon="5.31843">
        <ele>1112</ele>
        <time>2021-09-12T09:42:24Z</time>
      </trkpt>
      <trkpt lat="44.13704" lon="5.31843">
        <ele>1113</ele>
        <time>2021-09-12T09:42:31Z</time>
      </trkpt>
      <trkpt lat="44.137" lon="5.31843">
        <ele>1112.8</ele>
        <time>2021-09-12T09:42:46Z</time>
      </trkpt>
      <trkpt lat="44.13698" lon="5.31846">
        <ele>1112.4</ele>
        <time>2021-09-12T09:42:48Z</time>
      </trkpt>
      <trkpt lat="44.13695" lon="5.31848">
        <ele>1111.8</ele>
        <time>2021-09-12T09:42:50Z</time>
      </trkpt>
      <trkpt lat="44.13694" lon="5.3185">
        <ele>1110.8</ele>
        <time>2021-09-12T09:43:24Z</time>
      </trkpt>
      <trkpt lat="44.13695" lon="5.3185">
        <ele>1110.6</ele>
        <time>2021-09-12T09:43:27Z</time>
      </trkpt>
      <trkpt lat="44.13692" lon="5.31848">
        <ele>1110.8</ele>
        <time>2021-09-12T09:45:46Z</time>
      </trkpt>
      <trkpt lat="44.13696" lon="5.31849">
        <ele>1110.8</ele>
        <time>2021-09-12T09:48:07Z</time>
      </trkpt>
      <trkpt lat="44.13698" lon="5.3185">
        <ele>1111</ele>
        <time>2021-09-12T09:48:09Z</time>
      </trkpt>
      <trkpt lat="44.13698" lon="5.31851">
        <ele>1111</ele>
        <time>2021-09-12T09:48:11Z</time>
      </trkpt>
      <trkpt lat="44.13698" lon="5.31855">
        <ele>1111.2</ele>
        <time>2021-09-12T09:48:13Z</time>
      </trkpt>
      <trkpt lat="44.13685" lon="5.31874">
        <ele>1110.4</ele>
        <time>2021-09-12T09:48:25Z</time>
      </trkpt>
      <trkpt lat="44.13681" lon="5.31873">
        <ele>1111</ele>
        <time>2021-09-12T09:48:42Z</time>
      </trkpt>
    </trkseg>
  </trk>
</gpx>